<?xml version="1.0" encoding="UTF-8" standalone="no" ?>
<gpx xmlns="http://www.topografix.com/GPX/1/1" xmlns:xsi="http://www.w3.org/2001/XMLSchema-instance" xsi:schemaLocation="http://www.topografix.com/GPX/1/1 http://www.topografix.com/GPX/1/1/gpx.xsd" version="1.1" creator="VisuGPX - https://www.visugpx.com">
  <metadata>
    <name>14371151-Rando de la suisse Normande</name>
  </metadata>
  <trk>
    <name><![CDATA[14371151-Rando de la suisse Normande]]></name>
    <trkseg>
      <trkpt lat="49.03303" lon="-0.46744">
        <ele>26</ele>
        <time>2022-04-06T10:36:35Z</time>
      </trkpt>
      <trkpt lat="49.03313" lon="-0.46649">
        <ele>20</ele>
        <time>2022-04-06T10:36:50Z</time>
      </trkpt>
      <trkpt lat="49.03321" lon="-0.46596">
        <ele>21</ele>
        <time>2022-04-06T10:36:58Z</time>
      </trkpt>
      <trkpt lat="49.03327" lon="-0.4644">
        <ele>36</ele>
        <time>2022-04-06T10:37:22Z</time>
      </trkpt>
      <trkpt lat="49.03332" lon="-0.46404">
        <ele>39</ele>
        <time>2022-04-06T10:37:28Z</time>
      </trkpt>
      <trkpt lat="49.03324" lon="-0.46353">
        <ele>42</ele>
        <time>2022-04-06T10:37:36Z</time>
      </trkpt>
      <trkpt lat="49.03321" lon="-0.46269">
        <ele>47</ele>
        <time>2022-04-06T10:37:49Z</time>
      </trkpt>
      <trkpt lat="49.03329" lon="-0.46204">
        <ele>50</ele>
        <time>2022-04-06T10:37:59Z</time>
      </trkpt>
      <trkpt lat="49.03343" lon="-0.46129">
        <ele>52</ele>
        <time>2022-04-06T10:38:11Z</time>
      </trkpt>
      <trkpt lat="49.03351" lon="-0.46099">
        <ele>52</ele>
        <time>2022-04-06T10:38:16Z</time>
      </trkpt>
      <trkpt lat="49.03351" lon="-0.46051">
        <ele>53</ele>
        <time>2022-04-06T10:38:23Z</time>
      </trkpt>
      <trkpt lat="49.03339" lon="-0.46023">
        <ele>53</ele>
        <time>2022-04-06T10:38:28Z</time>
      </trkpt>
      <trkpt lat="49.03302" lon="-0.45981">
        <ele>55</ele>
        <time>2022-04-06T10:38:39Z</time>
      </trkpt>
      <trkpt lat="49.0329" lon="-0.45971">
        <ele>56</ele>
        <time>2022-04-06T10:38:42Z</time>
      </trkpt>
      <trkpt lat="49.03266" lon="-0.46005">
        <ele>55</ele>
        <time>2022-04-06T10:38:50Z</time>
      </trkpt>
      <trkpt lat="49.03252" lon="-0.46004">
        <ele>56</ele>
        <time>2022-04-06T10:38:53Z</time>
      </trkpt>
      <trkpt lat="49.03228" lon="-0.45919">
        <ele>60</ele>
        <time>2022-04-06T10:39:07Z</time>
      </trkpt>
      <trkpt lat="49.0321" lon="-0.45874">
        <ele>63</ele>
        <time>2022-04-06T10:39:15Z</time>
      </trkpt>
      <trkpt lat="49.03206" lon="-0.45842">
        <ele>64</ele>
        <time>2022-04-06T10:39:20Z</time>
      </trkpt>
      <trkpt lat="49.0321" lon="-0.45748">
        <ele>66</ele>
        <time>2022-04-06T10:39:35Z</time>
      </trkpt>
      <trkpt lat="49.03184" lon="-0.45744">
        <ele>69</ele>
        <time>2022-04-06T10:39:41Z</time>
      </trkpt>
      <trkpt lat="49.03166" lon="-0.45628">
        <ele>73</ele>
        <time>2022-04-06T10:39:59Z</time>
      </trkpt>
      <trkpt lat="49.03148" lon="-0.45574">
        <ele>76</ele>
        <time>2022-04-06T10:40:08Z</time>
      </trkpt>
      <trkpt lat="49.03123" lon="-0.45542">
        <ele>78</ele>
        <time>2022-04-06T10:40:16Z</time>
      </trkpt>
      <trkpt lat="49.03069" lon="-0.45342">
        <ele>84</ele>
        <time>2022-04-06T10:40:49Z</time>
      </trkpt>
      <trkpt lat="49.0303" lon="-0.45246">
        <ele>90</ele>
        <time>2022-04-06T10:41:06Z</time>
      </trkpt>
      <trkpt lat="49.03027" lon="-0.45229">
        <ele>91</ele>
        <time>2022-04-06T10:41:09Z</time>
      </trkpt>
      <trkpt lat="49.0304" lon="-0.45187">
        <ele>94</ele>
        <time>2022-04-06T10:41:16Z</time>
      </trkpt>
      <trkpt lat="49.0305" lon="-0.45172">
        <ele>95</ele>
        <time>2022-04-06T10:41:19Z</time>
      </trkpt>
      <trkpt lat="49.0306" lon="-0.45174">
        <ele>94</ele>
        <time>2022-04-06T10:41:22Z</time>
      </trkpt>
      <trkpt lat="49.03077" lon="-0.45182">
        <ele>94</ele>
        <time>2022-04-06T10:41:26Z</time>
      </trkpt>
      <trkpt lat="49.03089" lon="-0.45178">
        <ele>94</ele>
        <time>2022-04-06T10:41:29Z</time>
      </trkpt>
      <trkpt lat="49.03108" lon="-0.45163">
        <ele>94</ele>
        <time>2022-04-06T10:41:34Z</time>
      </trkpt>
      <trkpt lat="49.03114" lon="-0.45149">
        <ele>95</ele>
        <time>2022-04-06T10:41:36Z</time>
      </trkpt>
      <trkpt lat="49.03118" lon="-0.4512">
        <ele>96</ele>
        <time>2022-04-06T10:41:41Z</time>
      </trkpt>
      <trkpt lat="49.03118" lon="-0.45082">
        <ele>98</ele>
        <time>2022-04-06T10:41:47Z</time>
      </trkpt>
      <trkpt lat="49.03107" lon="-0.44818">
        <ele>113</ele>
        <time>2022-04-06T10:42:27Z</time>
      </trkpt>
      <trkpt lat="49.03098" lon="-0.44808">
        <ele>113</ele>
        <time>2022-04-06T10:42:30Z</time>
      </trkpt>
      <trkpt lat="49.03025" lon="-0.44802">
        <ele>114</ele>
        <time>2022-04-06T10:42:47Z</time>
      </trkpt>
      <trkpt lat="49.02929" lon="-0.4479">
        <ele>113</ele>
        <time>2022-04-06T10:43:09Z</time>
      </trkpt>
      <trkpt lat="49.02886" lon="-0.44774">
        <ele>113</ele>
        <time>2022-04-06T10:43:20Z</time>
      </trkpt>
      <trkpt lat="49.02871" lon="-0.44771">
        <ele>113</ele>
        <time>2022-04-06T10:43:23Z</time>
      </trkpt>
      <trkpt lat="49.02853" lon="-0.4478">
        <ele>113</ele>
        <time>2022-04-06T10:43:28Z</time>
      </trkpt>
      <trkpt lat="49.02828" lon="-0.4478">
        <ele>113</ele>
        <time>2022-04-06T10:43:33Z</time>
      </trkpt>
      <trkpt lat="49.02787" lon="-0.44732">
        <ele>116</ele>
        <time>2022-04-06T10:43:45Z</time>
      </trkpt>
      <trkpt lat="49.02763" lon="-0.44721">
        <ele>116</ele>
        <time>2022-04-06T10:43:51Z</time>
      </trkpt>
      <trkpt lat="49.02712" lon="-0.44722">
        <ele>116</ele>
        <time>2022-04-06T10:44:03Z</time>
      </trkpt>
      <trkpt lat="49.02626" lon="-0.44739">
        <ele>114</ele>
        <time>2022-04-06T10:44:23Z</time>
      </trkpt>
      <trkpt lat="49.02569" lon="-0.44764">
        <ele>113</ele>
        <time>2022-04-06T10:44:37Z</time>
      </trkpt>
      <trkpt lat="49.02538" lon="-0.44773">
        <ele>112</ele>
        <time>2022-04-06T10:44:45Z</time>
      </trkpt>
      <trkpt lat="49.02532" lon="-0.44702">
        <ele>114</ele>
        <time>2022-04-06T10:44:56Z</time>
      </trkpt>
      <trkpt lat="49.02518" lon="-0.44626">
        <ele>114</ele>
        <time>2022-04-06T10:45:08Z</time>
      </trkpt>
      <trkpt lat="49.02503" lon="-0.44497">
        <ele>117</ele>
        <time>2022-04-06T10:45:28Z</time>
      </trkpt>
      <trkpt lat="49.02468" lon="-0.44405">
        <ele>121</ele>
        <time>2022-04-06T10:45:44Z</time>
      </trkpt>
      <trkpt lat="49.0237" lon="-0.44229">
        <ele>117</ele>
        <time>2022-04-06T10:46:19Z</time>
      </trkpt>
      <trkpt lat="49.02352" lon="-0.44214">
        <ele>116</ele>
        <time>2022-04-06T10:46:24Z</time>
      </trkpt>
      <trkpt lat="49.0234" lon="-0.44187">
        <ele>115</ele>
        <time>2022-04-06T10:46:29Z</time>
      </trkpt>
      <trkpt lat="49.02331" lon="-0.44138">
        <ele>116</ele>
        <time>2022-04-06T10:46:37Z</time>
      </trkpt>
      <trkpt lat="49.02318" lon="-0.44101">
        <ele>118</ele>
        <time>2022-04-06T10:46:43Z</time>
      </trkpt>
      <trkpt lat="49.02304" lon="-0.44079">
        <ele>118</ele>
        <time>2022-04-06T10:46:48Z</time>
      </trkpt>
      <trkpt lat="49.02283" lon="-0.44086">
        <ele>118</ele>
        <time>2022-04-06T10:46:53Z</time>
      </trkpt>
      <trkpt lat="49.02268" lon="-0.441">
        <ele>117</ele>
        <time>2022-04-06T10:46:57Z</time>
      </trkpt>
      <trkpt lat="49.02247" lon="-0.44111">
        <ele>118</ele>
        <time>2022-04-06T10:47:02Z</time>
      </trkpt>
      <trkpt lat="49.02191" lon="-0.44149">
        <ele>121</ele>
        <time>2022-04-06T10:47:17Z</time>
      </trkpt>
      <trkpt lat="49.02124" lon="-0.44187">
        <ele>122</ele>
        <time>2022-04-06T10:47:33Z</time>
      </trkpt>
      <trkpt lat="49.02102" lon="-0.44183">
        <ele>122</ele>
        <time>2022-04-06T10:47:39Z</time>
      </trkpt>
      <trkpt lat="49.02049" lon="-0.43916">
        <ele>133</ele>
        <time>2022-04-06T10:48:21Z</time>
      </trkpt>
      <trkpt lat="49.02062" lon="-0.43891">
        <ele>133</ele>
        <time>2022-04-06T10:48:26Z</time>
      </trkpt>
      <trkpt lat="49.02058" lon="-0.43834">
        <ele>136</ele>
        <time>2022-04-06T10:48:35Z</time>
      </trkpt>
      <trkpt lat="49.02048" lon="-0.43817">
        <ele>137</ele>
        <time>2022-04-06T10:48:39Z</time>
      </trkpt>
      <trkpt lat="49.02005" lon="-0.43775">
        <ele>140</ele>
        <time>2022-04-06T10:48:50Z</time>
      </trkpt>
      <trkpt lat="49.01943" lon="-0.43702">
        <ele>144</ele>
        <time>2022-04-06T10:49:09Z</time>
      </trkpt>
      <trkpt lat="49.01566" lon="-0.43205">
        <ele>168</ele>
        <time>2022-04-06T10:51:05Z</time>
      </trkpt>
      <trkpt lat="49.01531" lon="-0.4317">
        <ele>170</ele>
        <time>2022-04-06T10:51:15Z</time>
      </trkpt>
      <trkpt lat="49.01426" lon="-0.43246">
        <ele>170</ele>
        <time>2022-04-06T10:51:42Z</time>
      </trkpt>
      <trkpt lat="49.01409" lon="-0.43252">
        <ele>170</ele>
        <time>2022-04-06T10:51:46Z</time>
      </trkpt>
      <trkpt lat="49.01383" lon="-0.43201">
        <ele>170</ele>
        <time>2022-04-06T10:51:56Z</time>
      </trkpt>
      <trkpt lat="49.01369" lon="-0.43165">
        <ele>171</ele>
        <time>2022-04-06T10:52:02Z</time>
      </trkpt>
      <trkpt lat="49.01355" lon="-0.43144">
        <ele>172</ele>
        <time>2022-04-06T10:52:07Z</time>
      </trkpt>
      <trkpt lat="49.01332" lon="-0.43146">
        <ele>172</ele>
        <time>2022-04-06T10:52:12Z</time>
      </trkpt>
      <trkpt lat="49.01319" lon="-0.43133">
        <ele>173</ele>
        <time>2022-04-06T10:52:16Z</time>
      </trkpt>
      <trkpt lat="49.01301" lon="-0.43105">
        <ele>175</ele>
        <time>2022-04-06T10:52:22Z</time>
      </trkpt>
      <trkpt lat="49.01297" lon="-0.43037">
        <ele>178</ele>
        <time>2022-04-06T10:52:33Z</time>
      </trkpt>
      <trkpt lat="49.01275" lon="-0.42854">
        <ele>183</ele>
        <time>2022-04-06T10:53:01Z</time>
      </trkpt>
      <trkpt lat="49.01273" lon="-0.42754">
        <ele>184</ele>
        <time>2022-04-06T10:53:16Z</time>
      </trkpt>
      <trkpt lat="49.01262" lon="-0.42618">
        <ele>183</ele>
        <time>2022-04-06T10:53:37Z</time>
      </trkpt>
      <trkpt lat="49.01276" lon="-0.42554">
        <ele>183</ele>
        <time>2022-04-06T10:53:48Z</time>
      </trkpt>
      <trkpt lat="49.01284" lon="-0.42498">
        <ele>185</ele>
        <time>2022-04-06T10:53:56Z</time>
      </trkpt>
      <trkpt lat="49.01274" lon="-0.42467">
        <ele>185</ele>
        <time>2022-04-06T10:54:02Z</time>
      </trkpt>
      <trkpt lat="49.01215" lon="-0.42389">
        <ele>184</ele>
        <time>2022-04-06T10:54:20Z</time>
      </trkpt>
      <trkpt lat="49.01092" lon="-0.42234">
        <ele>182</ele>
        <time>2022-04-06T10:54:57Z</time>
      </trkpt>
      <trkpt lat="49.01042" lon="-0.42156">
        <ele>182</ele>
        <time>2022-04-06T10:55:14Z</time>
      </trkpt>
      <trkpt lat="49.00995" lon="-0.42102">
        <ele>180</ele>
        <time>2022-04-06T10:55:28Z</time>
      </trkpt>
      <trkpt lat="49.00937" lon="-0.4206">
        <ele>179</ele>
        <time>2022-04-06T10:55:43Z</time>
      </trkpt>
      <trkpt lat="49.00745" lon="-0.41942">
        <ele>177</ele>
        <time>2022-04-06T10:56:31Z</time>
      </trkpt>
      <trkpt lat="49.00696" lon="-0.41905">
        <ele>178</ele>
        <time>2022-04-06T10:56:44Z</time>
      </trkpt>
      <trkpt lat="49.00628" lon="-0.41863">
        <ele>177</ele>
        <time>2022-04-06T10:57:01Z</time>
      </trkpt>
      <trkpt lat="49.00593" lon="-0.41873">
        <ele>177</ele>
        <time>2022-04-06T10:57:09Z</time>
      </trkpt>
      <trkpt lat="49.00565" lon="-0.41876">
        <ele>177</ele>
        <time>2022-04-06T10:57:16Z</time>
      </trkpt>
      <trkpt lat="49.00506" lon="-0.41846">
        <ele>175</ele>
        <time>2022-04-06T10:57:30Z</time>
      </trkpt>
      <trkpt lat="49.0044" lon="-0.41806">
        <ele>172</ele>
        <time>2022-04-06T10:57:47Z</time>
      </trkpt>
      <trkpt lat="49.00388" lon="-0.41782">
        <ele>168</ele>
        <time>2022-04-06T10:58:00Z</time>
      </trkpt>
      <trkpt lat="49.00362" lon="-0.41775">
        <ele>166</ele>
        <time>2022-04-06T10:58:06Z</time>
      </trkpt>
      <trkpt lat="49.00304" lon="-0.418">
        <ele>161</ele>
        <time>2022-04-06T10:58:20Z</time>
      </trkpt>
      <trkpt lat="49.00269" lon="-0.41791">
        <ele>156</ele>
        <time>2022-04-06T10:58:28Z</time>
      </trkpt>
      <trkpt lat="49.00224" lon="-0.41788">
        <ele>149</ele>
        <time>2022-04-06T10:58:39Z</time>
      </trkpt>
      <trkpt lat="49.00185" lon="-0.41806">
        <ele>144</ele>
        <time>2022-04-06T10:58:48Z</time>
      </trkpt>
      <trkpt lat="49.00138" lon="-0.41848">
        <ele>139</ele>
        <time>2022-04-06T10:59:01Z</time>
      </trkpt>
      <trkpt lat="49.0011" lon="-0.41836">
        <ele>134</ele>
        <time>2022-04-06T10:59:08Z</time>
      </trkpt>
      <trkpt lat="49.00093" lon="-0.41806">
        <ele>132</ele>
        <time>2022-04-06T10:59:14Z</time>
      </trkpt>
      <trkpt lat="49.00096" lon="-0.41792">
        <ele>132</ele>
        <time>2022-04-06T10:59:16Z</time>
      </trkpt>
      <trkpt lat="49.00109" lon="-0.41769">
        <ele>134</ele>
        <time>2022-04-06T10:59:21Z</time>
      </trkpt>
      <trkpt lat="49.00119" lon="-0.41738">
        <ele>134</ele>
        <time>2022-04-06T10:59:26Z</time>
      </trkpt>
      <trkpt lat="49.00121" lon="-0.41708">
        <ele>135</ele>
        <time>2022-04-06T10:59:31Z</time>
      </trkpt>
      <trkpt lat="49.00109" lon="-0.41681">
        <ele>135</ele>
        <time>2022-04-06T10:59:36Z</time>
      </trkpt>
      <trkpt lat="49.00105" lon="-0.41663">
        <ele>136</ele>
        <time>2022-04-06T10:59:38Z</time>
      </trkpt>
      <trkpt lat="49.00147" lon="-0.41539">
        <ele>140</ele>
        <time>2022-04-06T11:00:00Z</time>
      </trkpt>
      <trkpt lat="49.00097" lon="-0.41478">
        <ele>146</ele>
        <time>2022-04-06T11:00:15Z</time>
      </trkpt>
      <trkpt lat="49.00091" lon="-0.41458">
        <ele>148</ele>
        <time>2022-04-06T11:00:18Z</time>
      </trkpt>
      <trkpt lat="49.00062" lon="-0.41451">
        <ele>150</ele>
        <time>2022-04-06T11:00:25Z</time>
      </trkpt>
      <trkpt lat="49.00079" lon="-0.41247">
        <ele>159</ele>
        <time>2022-04-06T11:00:57Z</time>
      </trkpt>
      <trkpt lat="49.0008" lon="-0.41201">
        <ele>161</ele>
        <time>2022-04-06T11:01:04Z</time>
      </trkpt>
      <trkpt lat="49.00065" lon="-0.41124">
        <ele>163</ele>
        <time>2022-04-06T11:01:16Z</time>
      </trkpt>
      <trkpt lat="49.00052" lon="-0.41071">
        <ele>164</ele>
        <time>2022-04-06T11:01:25Z</time>
      </trkpt>
      <trkpt lat="49.00032" lon="-0.41009">
        <ele>165</ele>
        <time>2022-04-06T11:01:35Z</time>
      </trkpt>
      <trkpt lat="48.99988" lon="-0.40883">
        <ele>167</ele>
        <time>2022-04-06T11:01:57Z</time>
      </trkpt>
      <trkpt lat="48.9997" lon="-0.40838">
        <ele>168</ele>
        <time>2022-04-06T11:02:05Z</time>
      </trkpt>
      <trkpt lat="48.99954" lon="-0.40817">
        <ele>168</ele>
        <time>2022-04-06T11:02:10Z</time>
      </trkpt>
      <trkpt lat="48.99859" lon="-0.40729">
        <ele>168</ele>
        <time>2022-04-06T11:02:36Z</time>
      </trkpt>
      <trkpt lat="48.99842" lon="-0.40735">
        <ele>167</ele>
        <time>2022-04-06T11:02:40Z</time>
      </trkpt>
      <trkpt lat="48.99824" lon="-0.40776">
        <ele>166</ele>
        <time>2022-04-06T11:02:48Z</time>
      </trkpt>
      <trkpt lat="48.99797" lon="-0.40853">
        <ele>164</ele>
        <time>2022-04-06T11:03:01Z</time>
      </trkpt>
      <trkpt lat="48.99572" lon="-0.40843">
        <ele>160</ele>
        <time>2022-04-06T11:03:54Z</time>
      </trkpt>
      <trkpt lat="48.99518" lon="-0.40853">
        <ele>158</ele>
        <time>2022-04-06T11:04:06Z</time>
      </trkpt>
      <trkpt lat="48.99448" lon="-0.40893">
        <ele>152</ele>
        <time>2022-04-06T11:04:24Z</time>
      </trkpt>
      <trkpt lat="48.99359" lon="-0.41033">
        <ele>143</ele>
        <time>2022-04-06T11:04:54Z</time>
      </trkpt>
      <trkpt lat="48.99322" lon="-0.41084">
        <ele>142</ele>
        <time>2022-04-06T11:05:05Z</time>
      </trkpt>
      <trkpt lat="48.99296" lon="-0.41112">
        <ele>139</ele>
        <time>2022-04-06T11:05:13Z</time>
      </trkpt>
      <trkpt lat="48.9927" lon="-0.41134">
        <ele>136</ele>
        <time>2022-04-06T11:05:20Z</time>
      </trkpt>
      <trkpt lat="48.99255" lon="-0.41185">
        <ele>135</ele>
        <time>2022-04-06T11:05:28Z</time>
      </trkpt>
      <trkpt lat="48.99178" lon="-0.41286">
        <ele>124</ele>
        <time>2022-04-06T11:05:52Z</time>
      </trkpt>
      <trkpt lat="48.99158" lon="-0.41284">
        <ele>122</ele>
        <time>2022-04-06T11:05:57Z</time>
      </trkpt>
      <trkpt lat="48.99142" lon="-0.41241">
        <ele>122</ele>
        <time>2022-04-06T11:06:04Z</time>
      </trkpt>
      <trkpt lat="48.99123" lon="-0.41216">
        <ele>122</ele>
        <time>2022-04-06T11:06:10Z</time>
      </trkpt>
      <trkpt lat="48.9908" lon="-0.41216">
        <ele>123</ele>
        <time>2022-04-06T11:06:20Z</time>
      </trkpt>
      <trkpt lat="48.99006" lon="-0.41196">
        <ele>125</ele>
        <time>2022-04-06T11:06:38Z</time>
      </trkpt>
      <trkpt lat="48.98969" lon="-0.41198">
        <ele>125</ele>
        <time>2022-04-06T11:06:46Z</time>
      </trkpt>
      <trkpt lat="48.98944" lon="-0.41188">
        <ele>125</ele>
        <time>2022-04-06T11:06:52Z</time>
      </trkpt>
      <trkpt lat="48.98926" lon="-0.41176">
        <ele>124</ele>
        <time>2022-04-06T11:06:57Z</time>
      </trkpt>
      <trkpt lat="48.98919" lon="-0.41204">
        <ele>124</ele>
        <time>2022-04-06T11:07:01Z</time>
      </trkpt>
      <trkpt lat="48.98924" lon="-0.41231">
        <ele>125</ele>
        <time>2022-04-06T11:07:06Z</time>
      </trkpt>
      <trkpt lat="48.98983" lon="-0.41327">
        <ele>127</ele>
        <time>2022-04-06T11:07:26Z</time>
      </trkpt>
      <trkpt lat="48.98996" lon="-0.4136">
        <ele>128</ele>
        <time>2022-04-06T11:07:32Z</time>
      </trkpt>
      <trkpt lat="48.98966" lon="-0.41382">
        <ele>132</ele>
        <time>2022-04-06T11:07:40Z</time>
      </trkpt>
      <trkpt lat="48.98934" lon="-0.4141">
        <ele>137</ele>
        <time>2022-04-06T11:07:48Z</time>
      </trkpt>
      <trkpt lat="48.989" lon="-0.41451">
        <ele>141</ele>
        <time>2022-04-06T11:07:58Z</time>
      </trkpt>
      <trkpt lat="48.98876" lon="-0.41492">
        <ele>143</ele>
        <time>2022-04-06T11:08:07Z</time>
      </trkpt>
      <trkpt lat="48.9878" lon="-0.41573">
        <ele>151</ele>
        <time>2022-04-06T11:08:32Z</time>
      </trkpt>
      <trkpt lat="48.98722" lon="-0.4163">
        <ele>157</ele>
        <time>2022-04-06T11:08:49Z</time>
      </trkpt>
      <trkpt lat="48.98711" lon="-0.41848">
        <ele>163</ele>
        <time>2022-04-06T11:09:22Z</time>
      </trkpt>
      <trkpt lat="48.98723" lon="-0.42">
        <ele>164</ele>
        <time>2022-04-06T11:09:45Z</time>
      </trkpt>
      <trkpt lat="48.98706" lon="-0.42046">
        <ele>163</ele>
        <time>2022-04-06T11:09:54Z</time>
      </trkpt>
      <trkpt lat="48.98658" lon="-0.4214">
        <ele>160</ele>
        <time>2022-04-06T11:10:12Z</time>
      </trkpt>
      <trkpt lat="48.98584" lon="-0.42238">
        <ele>156</ele>
        <time>2022-04-06T11:10:35Z</time>
      </trkpt>
      <trkpt lat="48.98514" lon="-0.42339">
        <ele>151</ele>
        <time>2022-04-06T11:10:57Z</time>
      </trkpt>
      <trkpt lat="48.98491" lon="-0.42385">
        <ele>150</ele>
        <time>2022-04-06T11:11:06Z</time>
      </trkpt>
      <trkpt lat="48.98536" lon="-0.42423">
        <ele>148</ele>
        <time>2022-04-06T11:11:18Z</time>
      </trkpt>
      <trkpt lat="48.9861" lon="-0.42465">
        <ele>145</ele>
        <time>2022-04-06T11:11:37Z</time>
      </trkpt>
      <trkpt lat="48.98621" lon="-0.42498">
        <ele>144</ele>
        <time>2022-04-06T11:11:42Z</time>
      </trkpt>
      <trkpt lat="48.98635" lon="-0.42563">
        <ele>142</ele>
        <time>2022-04-06T11:11:53Z</time>
      </trkpt>
      <trkpt lat="48.98634" lon="-0.42594">
        <ele>141</ele>
        <time>2022-04-06T11:11:57Z</time>
      </trkpt>
      <trkpt lat="48.98576" lon="-0.42649">
        <ele>137</ele>
        <time>2022-04-06T11:12:13Z</time>
      </trkpt>
      <trkpt lat="48.98558" lon="-0.42689">
        <ele>135</ele>
        <time>2022-04-06T11:12:21Z</time>
      </trkpt>
      <trkpt lat="48.98549" lon="-0.42777">
        <ele>131</ele>
        <time>2022-04-06T11:12:35Z</time>
      </trkpt>
      <trkpt lat="48.98553" lon="-0.42813">
        <ele>131</ele>
        <time>2022-04-06T11:12:40Z</time>
      </trkpt>
      <trkpt lat="48.9857" lon="-0.4285">
        <ele>130</ele>
        <time>2022-04-06T11:12:47Z</time>
      </trkpt>
      <trkpt lat="48.98579" lon="-0.42918">
        <ele>132</ele>
        <time>2022-04-06T11:12:58Z</time>
      </trkpt>
      <trkpt lat="48.98592" lon="-0.42965">
        <ele>132</ele>
        <time>2022-04-06T11:13:05Z</time>
      </trkpt>
      <trkpt lat="48.98595" lon="-0.42998">
        <ele>132</ele>
        <time>2022-04-06T11:13:11Z</time>
      </trkpt>
      <trkpt lat="48.98594" lon="-0.43055">
        <ele>134</ele>
        <time>2022-04-06T11:13:19Z</time>
      </trkpt>
      <trkpt lat="48.98606" lon="-0.43135">
        <ele>136</ele>
        <time>2022-04-06T11:13:32Z</time>
      </trkpt>
      <trkpt lat="48.98608" lon="-0.43175">
        <ele>138</ele>
        <time>2022-04-06T11:13:38Z</time>
      </trkpt>
      <trkpt lat="48.98599" lon="-0.43259">
        <ele>140</ele>
        <time>2022-04-06T11:13:51Z</time>
      </trkpt>
      <trkpt lat="48.98564" lon="-0.43739">
        <ele>142</ele>
        <time>2022-04-06T11:15:05Z</time>
      </trkpt>
      <trkpt lat="48.9852" lon="-0.43953">
        <ele>143</ele>
        <time>2022-04-06T11:15:39Z</time>
      </trkpt>
      <trkpt lat="48.98523" lon="-0.43983">
        <ele>142</ele>
        <time>2022-04-06T11:15:44Z</time>
      </trkpt>
      <trkpt lat="48.98523" lon="-0.44057">
        <ele>139</ele>
        <time>2022-04-06T11:15:55Z</time>
      </trkpt>
      <trkpt lat="48.98519" lon="-0.44116">
        <ele>136</ele>
        <time>2022-04-06T11:16:05Z</time>
      </trkpt>
      <trkpt lat="48.98537" lon="-0.44167">
        <ele>132</ele>
        <time>2022-04-06T11:16:13Z</time>
      </trkpt>
      <trkpt lat="48.98547" lon="-0.44218">
        <ele>128</ele>
        <time>2022-04-06T11:16:22Z</time>
      </trkpt>
      <trkpt lat="48.98547" lon="-0.44297">
        <ele>122</ele>
        <time>2022-04-06T11:16:34Z</time>
      </trkpt>
      <trkpt lat="48.98541" lon="-0.44359">
        <ele>117</ele>
        <time>2022-04-06T11:16:43Z</time>
      </trkpt>
      <trkpt lat="48.98544" lon="-0.44422">
        <ele>113</ele>
        <time>2022-04-06T11:16:53Z</time>
      </trkpt>
      <trkpt lat="48.98555" lon="-0.44541">
        <ele>99</ele>
        <time>2022-04-06T11:17:11Z</time>
      </trkpt>
      <trkpt lat="48.98535" lon="-0.44624">
        <ele>89</ele>
        <time>2022-04-06T11:17:25Z</time>
      </trkpt>
      <trkpt lat="48.98528" lon="-0.44727">
        <ele>77</ele>
        <time>2022-04-06T11:17:41Z</time>
      </trkpt>
      <trkpt lat="48.98543" lon="-0.44856">
        <ele>69</ele>
        <time>2022-04-06T11:18:01Z</time>
      </trkpt>
      <trkpt lat="48.98542" lon="-0.4489">
        <ele>69</ele>
        <time>2022-04-06T11:18:06Z</time>
      </trkpt>
      <trkpt lat="48.98531" lon="-0.44928">
        <ele>69</ele>
        <time>2022-04-06T11:18:12Z</time>
      </trkpt>
      <trkpt lat="48.98504" lon="-0.44959">
        <ele>67</ele>
        <time>2022-04-06T11:18:20Z</time>
      </trkpt>
      <trkpt lat="48.98475" lon="-0.44988">
        <ele>71</ele>
        <time>2022-04-06T11:18:28Z</time>
      </trkpt>
      <trkpt lat="48.98455" lon="-0.44986">
        <ele>73</ele>
        <time>2022-04-06T11:18:33Z</time>
      </trkpt>
      <trkpt lat="48.98422" lon="-0.45">
        <ele>77</ele>
        <time>2022-04-06T11:18:41Z</time>
      </trkpt>
      <trkpt lat="48.98377" lon="-0.45028">
        <ele>85</ele>
        <time>2022-04-06T11:18:52Z</time>
      </trkpt>
      <trkpt lat="48.98334" lon="-0.45063">
        <ele>94</ele>
        <time>2022-04-06T11:19:04Z</time>
      </trkpt>
      <trkpt lat="48.98301" lon="-0.45079">
        <ele>99</ele>
        <time>2022-04-06T11:19:12Z</time>
      </trkpt>
      <trkpt lat="48.98224" lon="-0.4509">
        <ele>111</ele>
        <time>2022-04-06T11:19:30Z</time>
      </trkpt>
      <trkpt lat="48.9802" lon="-0.45161">
        <ele>127</ele>
        <time>2022-04-06T11:20:19Z</time>
      </trkpt>
      <trkpt lat="48.97931" lon="-0.45186">
        <ele>133</ele>
        <time>2022-04-06T11:20:40Z</time>
      </trkpt>
      <trkpt lat="48.97843" lon="-0.45216">
        <ele>138</ele>
        <time>2022-04-06T11:21:01Z</time>
      </trkpt>
      <trkpt lat="48.97753" lon="-0.45242">
        <ele>141</ele>
        <time>2022-04-06T11:21:22Z</time>
      </trkpt>
      <trkpt lat="48.97708" lon="-0.45262">
        <ele>141</ele>
        <time>2022-04-06T11:21:33Z</time>
      </trkpt>
      <trkpt lat="48.97672" lon="-0.45285">
        <ele>141</ele>
        <time>2022-04-06T11:21:43Z</time>
      </trkpt>
      <trkpt lat="48.97622" lon="-0.45328">
        <ele>138</ele>
        <time>2022-04-06T11:21:56Z</time>
      </trkpt>
      <trkpt lat="48.97574" lon="-0.45352">
        <ele>136</ele>
        <time>2022-04-06T11:22:08Z</time>
      </trkpt>
      <trkpt lat="48.97407" lon="-0.45398">
        <ele>136</ele>
        <time>2022-04-06T11:22:47Z</time>
      </trkpt>
      <trkpt lat="48.97392" lon="-0.45409">
        <ele>136</ele>
        <time>2022-04-06T11:22:51Z</time>
      </trkpt>
      <trkpt lat="48.97298" lon="-0.45449">
        <ele>140</ele>
        <time>2022-04-06T11:23:14Z</time>
      </trkpt>
      <trkpt lat="48.97235" lon="-0.45494">
        <ele>143</ele>
        <time>2022-04-06T11:23:30Z</time>
      </trkpt>
      <trkpt lat="48.97175" lon="-0.45544">
        <ele>146</ele>
        <time>2022-04-06T11:23:46Z</time>
      </trkpt>
      <trkpt lat="48.97103" lon="-0.45569">
        <ele>150</ele>
        <time>2022-04-06T11:24:04Z</time>
      </trkpt>
      <trkpt lat="48.97038" lon="-0.45579">
        <ele>154</ele>
        <time>2022-04-06T11:24:19Z</time>
      </trkpt>
      <trkpt lat="48.96971" lon="-0.4557">
        <ele>157</ele>
        <time>2022-04-06T11:24:34Z</time>
      </trkpt>
      <trkpt lat="48.96917" lon="-0.4557">
        <ele>158</ele>
        <time>2022-04-06T11:24:47Z</time>
      </trkpt>
      <trkpt lat="48.96846" lon="-0.45585">
        <ele>160</ele>
        <time>2022-04-06T11:25:04Z</time>
      </trkpt>
      <trkpt lat="48.96801" lon="-0.45598">
        <ele>160</ele>
        <time>2022-04-06T11:25:15Z</time>
      </trkpt>
      <trkpt lat="48.96772" lon="-0.45599">
        <ele>161</ele>
        <time>2022-04-06T11:25:21Z</time>
      </trkpt>
      <trkpt lat="48.96713" lon="-0.45578">
        <ele>162</ele>
        <time>2022-04-06T11:25:35Z</time>
      </trkpt>
      <trkpt lat="48.96634" lon="-0.45539">
        <ele>164</ele>
        <time>2022-04-06T11:25:55Z</time>
      </trkpt>
      <trkpt lat="48.96535" lon="-0.45485">
        <ele>168</ele>
        <time>2022-04-06T11:26:19Z</time>
      </trkpt>
      <trkpt lat="48.96524" lon="-0.45494">
        <ele>168</ele>
        <time>2022-04-06T11:26:22Z</time>
      </trkpt>
      <trkpt lat="48.9651" lon="-0.45564">
        <ele>166</ele>
        <time>2022-04-06T11:26:34Z</time>
      </trkpt>
      <trkpt lat="48.96541" lon="-0.45689">
        <ele>161</ele>
        <time>2022-04-06T11:26:54Z</time>
      </trkpt>
      <trkpt lat="48.96534" lon="-0.45705">
        <ele>160</ele>
        <time>2022-04-06T11:26:57Z</time>
      </trkpt>
      <trkpt lat="48.96436" lon="-0.45726">
        <ele>159</ele>
        <time>2022-04-06T11:27:20Z</time>
      </trkpt>
      <trkpt lat="48.96373" lon="-0.45751">
        <ele>156</ele>
        <time>2022-04-06T11:27:35Z</time>
      </trkpt>
      <trkpt lat="48.96327" lon="-0.45756">
        <ele>154</ele>
        <time>2022-04-06T11:27:46Z</time>
      </trkpt>
      <trkpt lat="48.96276" lon="-0.45756">
        <ele>153</ele>
        <time>2022-04-06T11:27:58Z</time>
      </trkpt>
      <trkpt lat="48.96244" lon="-0.45753">
        <ele>152</ele>
        <time>2022-04-06T11:28:05Z</time>
      </trkpt>
      <trkpt lat="48.96214" lon="-0.45778">
        <ele>153</ele>
        <time>2022-04-06T11:28:13Z</time>
      </trkpt>
      <trkpt lat="48.96188" lon="-0.45811">
        <ele>153</ele>
        <time>2022-04-06T11:28:21Z</time>
      </trkpt>
      <trkpt lat="48.96135" lon="-0.45814">
        <ele>156</ele>
        <time>2022-04-06T11:28:34Z</time>
      </trkpt>
      <trkpt lat="48.96004" lon="-0.45849">
        <ele>159</ele>
        <time>2022-04-06T11:29:05Z</time>
      </trkpt>
      <trkpt lat="48.95951" lon="-0.45855">
        <ele>157</ele>
        <time>2022-04-06T11:29:17Z</time>
      </trkpt>
      <trkpt lat="48.95902" lon="-0.45855">
        <ele>157</ele>
        <time>2022-04-06T11:29:29Z</time>
      </trkpt>
      <trkpt lat="48.95879" lon="-0.45862">
        <ele>157</ele>
        <time>2022-04-06T11:29:34Z</time>
      </trkpt>
      <trkpt lat="48.95858" lon="-0.45882">
        <ele>156</ele>
        <time>2022-04-06T11:29:40Z</time>
      </trkpt>
      <trkpt lat="48.95818" lon="-0.45936">
        <ele>154</ele>
        <time>2022-04-06T11:29:52Z</time>
      </trkpt>
      <trkpt lat="48.9577" lon="-0.4599">
        <ele>153</ele>
        <time>2022-04-06T11:30:06Z</time>
      </trkpt>
      <trkpt lat="48.95702" lon="-0.46056">
        <ele>154</ele>
        <time>2022-04-06T11:30:25Z</time>
      </trkpt>
      <trkpt lat="48.95645" lon="-0.46117">
        <ele>153</ele>
        <time>2022-04-06T11:30:41Z</time>
      </trkpt>
      <trkpt lat="48.95599" lon="-0.46154">
        <ele>153</ele>
        <time>2022-04-06T11:30:54Z</time>
      </trkpt>
      <trkpt lat="48.95537" lon="-0.46157">
        <ele>152</ele>
        <time>2022-04-06T11:31:08Z</time>
      </trkpt>
      <trkpt lat="48.95471" lon="-0.46146">
        <ele>147</ele>
        <time>2022-04-06T11:31:24Z</time>
      </trkpt>
      <trkpt lat="48.95448" lon="-0.46125">
        <ele>144</ele>
        <time>2022-04-06T11:31:30Z</time>
      </trkpt>
      <trkpt lat="48.95436" lon="-0.46091">
        <ele>143</ele>
        <time>2022-04-06T11:31:36Z</time>
      </trkpt>
      <trkpt lat="48.95434" lon="-0.46035">
        <ele>144</ele>
        <time>2022-04-06T11:31:44Z</time>
      </trkpt>
      <trkpt lat="48.95437" lon="-0.46012">
        <ele>146</ele>
        <time>2022-04-06T11:31:48Z</time>
      </trkpt>
      <trkpt lat="48.95434" lon="-0.45987">
        <ele>146</ele>
        <time>2022-04-06T11:31:52Z</time>
      </trkpt>
      <trkpt lat="48.95414" lon="-0.45983">
        <ele>144</ele>
        <time>2022-04-06T11:31:57Z</time>
      </trkpt>
      <trkpt lat="48.95371" lon="-0.46004">
        <ele>143</ele>
        <time>2022-04-06T11:32:07Z</time>
      </trkpt>
      <trkpt lat="48.95327" lon="-0.46073">
        <ele>138</ele>
        <time>2022-04-06T11:32:22Z</time>
      </trkpt>
      <trkpt lat="48.95275" lon="-0.46132">
        <ele>137</ele>
        <time>2022-04-06T11:32:37Z</time>
      </trkpt>
      <trkpt lat="48.95241" lon="-0.46157">
        <ele>133</ele>
        <time>2022-04-06T11:32:46Z</time>
      </trkpt>
      <trkpt lat="48.95188" lon="-0.46174">
        <ele>135</ele>
        <time>2022-04-06T11:32:58Z</time>
      </trkpt>
      <trkpt lat="48.95158" lon="-0.46195">
        <ele>132</ele>
        <time>2022-04-06T11:33:06Z</time>
      </trkpt>
      <trkpt lat="48.95131" lon="-0.46236">
        <ele>124</ele>
        <time>2022-04-06T11:33:15Z</time>
      </trkpt>
      <trkpt lat="48.95037" lon="-0.46326">
        <ele>113</ele>
        <time>2022-04-06T11:33:41Z</time>
      </trkpt>
      <trkpt lat="48.95002" lon="-0.46335">
        <ele>112</ele>
        <time>2022-04-06T11:33:49Z</time>
      </trkpt>
      <trkpt lat="48.94958" lon="-0.46341">
        <ele>116</ele>
        <time>2022-04-06T11:34:00Z</time>
      </trkpt>
      <trkpt lat="48.94928" lon="-0.46349">
        <ele>119</ele>
        <time>2022-04-06T11:34:07Z</time>
      </trkpt>
      <trkpt lat="48.94912" lon="-0.46334">
        <ele>121</ele>
        <time>2022-04-06T11:34:11Z</time>
      </trkpt>
      <trkpt lat="48.94837" lon="-0.46368">
        <ele>130</ele>
        <time>2022-04-06T11:34:29Z</time>
      </trkpt>
      <trkpt lat="48.9479" lon="-0.46416">
        <ele>137</ele>
        <time>2022-04-06T11:34:43Z</time>
      </trkpt>
      <trkpt lat="48.94668" lon="-0.46503">
        <ele>136</ele>
        <time>2022-04-06T11:35:14Z</time>
      </trkpt>
      <trkpt lat="48.94608" lon="-0.46539">
        <ele>129</ele>
        <time>2022-04-06T11:35:29Z</time>
      </trkpt>
      <trkpt lat="48.94572" lon="-0.46546">
        <ele>125</ele>
        <time>2022-04-06T11:35:38Z</time>
      </trkpt>
      <trkpt lat="48.9452" lon="-0.46528">
        <ele>122</ele>
        <time>2022-04-06T11:35:50Z</time>
      </trkpt>
      <trkpt lat="48.94461" lon="-0.465">
        <ele>117</ele>
        <time>2022-04-06T11:36:04Z</time>
      </trkpt>
      <trkpt lat="48.94424" lon="-0.46499">
        <ele>111</ele>
        <time>2022-04-06T11:36:13Z</time>
      </trkpt>
      <trkpt lat="48.94382" lon="-0.46505">
        <ele>104</ele>
        <time>2022-04-06T11:36:23Z</time>
      </trkpt>
      <trkpt lat="48.94358" lon="-0.46501">
        <ele>101</ele>
        <time>2022-04-06T11:36:29Z</time>
      </trkpt>
      <trkpt lat="48.94288" lon="-0.46451">
        <ele>98</ele>
        <time>2022-04-06T11:36:47Z</time>
      </trkpt>
      <trkpt lat="48.94264" lon="-0.46424">
        <ele>97</ele>
        <time>2022-04-06T11:36:54Z</time>
      </trkpt>
      <trkpt lat="48.94253" lon="-0.46437">
        <ele>96</ele>
        <time>2022-04-06T11:36:57Z</time>
      </trkpt>
      <trkpt lat="48.94236" lon="-0.4647">
        <ele>95</ele>
        <time>2022-04-06T11:37:03Z</time>
      </trkpt>
      <trkpt lat="48.9421" lon="-0.46481">
        <ele>98</ele>
        <time>2022-04-06T11:37:10Z</time>
      </trkpt>
      <trkpt lat="48.94179" lon="-0.46478">
        <ele>101</ele>
        <time>2022-04-06T11:37:17Z</time>
      </trkpt>
      <trkpt lat="48.94158" lon="-0.46454">
        <ele>103</ele>
        <time>2022-04-06T11:37:23Z</time>
      </trkpt>
      <trkpt lat="48.94148" lon="-0.46424">
        <ele>103</ele>
        <time>2022-04-06T11:37:28Z</time>
      </trkpt>
      <trkpt lat="48.94149" lon="-0.46388">
        <ele>101</ele>
        <time>2022-04-06T11:37:34Z</time>
      </trkpt>
      <trkpt lat="48.94146" lon="-0.46301">
        <ele>101</ele>
        <time>2022-04-06T11:37:47Z</time>
      </trkpt>
      <trkpt lat="48.94148" lon="-0.46282">
        <ele>101</ele>
        <time>2022-04-06T11:37:50Z</time>
      </trkpt>
      <trkpt lat="48.94166" lon="-0.46256">
        <ele>98</ele>
        <time>2022-04-06T11:37:56Z</time>
      </trkpt>
      <trkpt lat="48.94183" lon="-0.46129">
        <ele>109</ele>
        <time>2022-04-06T11:38:16Z</time>
      </trkpt>
      <trkpt lat="48.94201" lon="-0.46065">
        <ele>112</ele>
        <time>2022-04-06T11:38:26Z</time>
      </trkpt>
      <trkpt lat="48.94208" lon="-0.46009">
        <ele>115</ele>
        <time>2022-04-06T11:38:35Z</time>
      </trkpt>
      <trkpt lat="48.94222" lon="-0.45968">
        <ele>114</ele>
        <time>2022-04-06T11:38:42Z</time>
      </trkpt>
      <trkpt lat="48.94227" lon="-0.45937">
        <ele>115</ele>
        <time>2022-04-06T11:38:47Z</time>
      </trkpt>
      <trkpt lat="48.94235" lon="-0.45916">
        <ele>114</ele>
        <time>2022-04-06T11:38:51Z</time>
      </trkpt>
      <trkpt lat="48.94233" lon="-0.45884">
        <ele>115</ele>
        <time>2022-04-06T11:38:56Z</time>
      </trkpt>
      <trkpt lat="48.94206" lon="-0.4579">
        <ele>120</ele>
        <time>2022-04-06T11:39:11Z</time>
      </trkpt>
      <trkpt lat="48.94165" lon="-0.45705">
        <ele>119</ele>
        <time>2022-04-06T11:39:28Z</time>
      </trkpt>
      <trkpt lat="48.94122" lon="-0.45606">
        <ele>123</ele>
        <time>2022-04-06T11:39:46Z</time>
      </trkpt>
      <trkpt lat="48.94063" lon="-0.45501">
        <ele>127</ele>
        <time>2022-04-06T11:40:07Z</time>
      </trkpt>
      <trkpt lat="48.9402" lon="-0.45371">
        <ele>129</ele>
        <time>2022-04-06T11:40:29Z</time>
      </trkpt>
      <trkpt lat="48.94004" lon="-0.45298">
        <ele>124</ele>
        <time>2022-04-06T11:40:41Z</time>
      </trkpt>
      <trkpt lat="48.94009" lon="-0.45262">
        <ele>122</ele>
        <time>2022-04-06T11:40:47Z</time>
      </trkpt>
      <trkpt lat="48.94045" lon="-0.45255">
        <ele>125</ele>
        <time>2022-04-06T11:40:55Z</time>
      </trkpt>
      <trkpt lat="48.94057" lon="-0.45206">
        <ele>125</ele>
        <time>2022-04-06T11:41:03Z</time>
      </trkpt>
      <trkpt lat="48.94102" lon="-0.45058">
        <ele>122</ele>
        <time>2022-04-06T11:41:28Z</time>
      </trkpt>
      <trkpt lat="48.94121" lon="-0.45031">
        <ele>122</ele>
        <time>2022-04-06T11:41:34Z</time>
      </trkpt>
      <trkpt lat="48.94143" lon="-0.4501">
        <ele>122</ele>
        <time>2022-04-06T11:41:40Z</time>
      </trkpt>
      <trkpt lat="48.94165" lon="-0.45004">
        <ele>121</ele>
        <time>2022-04-06T11:41:46Z</time>
      </trkpt>
      <trkpt lat="48.94195" lon="-0.45021">
        <ele>124</ele>
        <time>2022-04-06T11:41:53Z</time>
      </trkpt>
      <trkpt lat="48.94343" lon="-0.45076">
        <ele>130</ele>
        <time>2022-04-06T11:42:29Z</time>
      </trkpt>
      <trkpt lat="48.94431" lon="-0.4509">
        <ele>137</ele>
        <time>2022-04-06T11:42:49Z</time>
      </trkpt>
      <trkpt lat="48.94448" lon="-0.45084">
        <ele>139</ele>
        <time>2022-04-06T11:42:54Z</time>
      </trkpt>
      <trkpt lat="48.94463" lon="-0.4507">
        <ele>141</ele>
        <time>2022-04-06T11:42:58Z</time>
      </trkpt>
      <trkpt lat="48.94464" lon="-0.45052">
        <ele>142</ele>
        <time>2022-04-06T11:43:00Z</time>
      </trkpt>
      <trkpt lat="48.94349" lon="-0.44803">
        <ele>141</ele>
        <time>2022-04-06T11:43:47Z</time>
      </trkpt>
      <trkpt lat="48.94317" lon="-0.44751">
        <ele>138</ele>
        <time>2022-04-06T11:43:58Z</time>
      </trkpt>
      <trkpt lat="48.94294" lon="-0.447">
        <ele>137</ele>
        <time>2022-04-06T11:44:07Z</time>
      </trkpt>
      <trkpt lat="48.94252" lon="-0.44585">
        <ele>133</ele>
        <time>2022-04-06T11:44:28Z</time>
      </trkpt>
      <trkpt lat="48.94215" lon="-0.44469">
        <ele>136</ele>
        <time>2022-04-06T11:44:47Z</time>
      </trkpt>
      <trkpt lat="48.94161" lon="-0.44287">
        <ele>138</ele>
        <time>2022-04-06T11:45:18Z</time>
      </trkpt>
      <trkpt lat="48.94142" lon="-0.44246">
        <ele>137</ele>
        <time>2022-04-06T11:45:26Z</time>
      </trkpt>
      <trkpt lat="48.94082" lon="-0.44152">
        <ele>137</ele>
        <time>2022-04-06T11:45:46Z</time>
      </trkpt>
      <trkpt lat="48.94034" lon="-0.44056">
        <ele>139</ele>
        <time>2022-04-06T11:46:04Z</time>
      </trkpt>
      <trkpt lat="48.93994" lon="-0.43965">
        <ele>141</ele>
        <time>2022-04-06T11:46:21Z</time>
      </trkpt>
      <trkpt lat="48.93948" lon="-0.43898">
        <ele>139</ele>
        <time>2022-04-06T11:46:36Z</time>
      </trkpt>
      <trkpt lat="48.93916" lon="-0.43844">
        <ele>139</ele>
        <time>2022-04-06T11:46:47Z</time>
      </trkpt>
      <trkpt lat="48.93888" lon="-0.43786">
        <ele>140</ele>
        <time>2022-04-06T11:46:58Z</time>
      </trkpt>
      <trkpt lat="48.93879" lon="-0.43761">
        <ele>140</ele>
        <time>2022-04-06T11:47:03Z</time>
      </trkpt>
      <trkpt lat="48.93921" lon="-0.43704">
        <ele>151</ele>
        <time>2022-04-06T11:47:16Z</time>
      </trkpt>
      <trkpt lat="48.9394" lon="-0.43674">
        <ele>158</ele>
        <time>2022-04-06T11:47:22Z</time>
      </trkpt>
      <trkpt lat="48.93956" lon="-0.43629">
        <ele>165</ele>
        <time>2022-04-06T11:47:30Z</time>
      </trkpt>
      <trkpt lat="48.93981" lon="-0.43602">
        <ele>172</ele>
        <time>2022-04-06T11:47:37Z</time>
      </trkpt>
      <trkpt lat="48.94016" lon="-0.43523">
        <ele>184</ele>
        <time>2022-04-06T11:47:52Z</time>
      </trkpt>
      <trkpt lat="48.94059" lon="-0.43495">
        <ele>195</ele>
        <time>2022-04-06T11:48:03Z</time>
      </trkpt>
      <trkpt lat="48.9408" lon="-0.43474">
        <ele>203</ele>
        <time>2022-04-06T11:48:09Z</time>
      </trkpt>
      <trkpt lat="48.94093" lon="-0.43451">
        <ele>209</ele>
        <time>2022-04-06T11:48:13Z</time>
      </trkpt>
      <trkpt lat="48.94098" lon="-0.43436">
        <ele>212</ele>
        <time>2022-04-06T11:48:16Z</time>
      </trkpt>
      <trkpt lat="48.94058" lon="-0.43334">
        <ele>216</ele>
        <time>2022-04-06T11:48:34Z</time>
      </trkpt>
      <trkpt lat="48.94055" lon="-0.43297">
        <ele>219</ele>
        <time>2022-04-06T11:48:40Z</time>
      </trkpt>
      <trkpt lat="48.94082" lon="-0.43269">
        <ele>224</ele>
        <time>2022-04-06T11:48:47Z</time>
      </trkpt>
      <trkpt lat="48.94098" lon="-0.43248">
        <ele>227</ele>
        <time>2022-04-06T11:48:52Z</time>
      </trkpt>
      <trkpt lat="48.94106" lon="-0.43227">
        <ele>228</ele>
        <time>2022-04-06T11:48:56Z</time>
      </trkpt>
      <trkpt lat="48.94104" lon="-0.432">
        <ele>229</ele>
        <time>2022-04-06T11:49:00Z</time>
      </trkpt>
      <trkpt lat="48.94118" lon="-0.43177">
        <ele>231</ele>
        <time>2022-04-06T11:49:05Z</time>
      </trkpt>
      <trkpt lat="48.94154" lon="-0.43149">
        <ele>232</ele>
        <time>2022-04-06T11:49:14Z</time>
      </trkpt>
      <trkpt lat="48.94182" lon="-0.43114">
        <ele>231</ele>
        <time>2022-04-06T11:49:23Z</time>
      </trkpt>
      <trkpt lat="48.94272" lon="-0.42984">
        <ele>224</ele>
        <time>2022-04-06T11:49:52Z</time>
      </trkpt>
      <trkpt lat="48.94284" lon="-0.42954">
        <ele>221</ele>
        <time>2022-04-06T11:49:57Z</time>
      </trkpt>
      <trkpt lat="48.94234" lon="-0.42904">
        <ele>220</ele>
        <time>2022-04-06T11:50:11Z</time>
      </trkpt>
      <trkpt lat="48.94176" lon="-0.42833">
        <ele>221</ele>
        <time>2022-04-06T11:50:29Z</time>
      </trkpt>
      <trkpt lat="48.94063" lon="-0.42681">
        <ele>227</ele>
        <time>2022-04-06T11:51:04Z</time>
      </trkpt>
      <trkpt lat="48.9402" lon="-0.42611">
        <ele>229</ele>
        <time>2022-04-06T11:51:19Z</time>
      </trkpt>
      <trkpt lat="48.94004" lon="-0.42558">
        <ele>230</ele>
        <time>2022-04-06T11:51:27Z</time>
      </trkpt>
      <trkpt lat="48.93962" lon="-0.42494">
        <ele>232</ele>
        <time>2022-04-06T11:51:41Z</time>
      </trkpt>
      <trkpt lat="48.93931" lon="-0.42462">
        <ele>234</ele>
        <time>2022-04-06T11:51:50Z</time>
      </trkpt>
      <trkpt lat="48.93829" lon="-0.42374">
        <ele>238</ele>
        <time>2022-04-06T11:52:17Z</time>
      </trkpt>
      <trkpt lat="48.93775" lon="-0.42301">
        <ele>238</ele>
        <time>2022-04-06T11:52:34Z</time>
      </trkpt>
      <trkpt lat="48.93738" lon="-0.42197">
        <ele>242</ele>
        <time>2022-04-06T11:52:53Z</time>
      </trkpt>
      <trkpt lat="48.93729" lon="-0.42165">
        <ele>243</ele>
        <time>2022-04-06T11:52:58Z</time>
      </trkpt>
      <trkpt lat="48.93731" lon="-0.42107">
        <ele>244</ele>
        <time>2022-04-06T11:53:07Z</time>
      </trkpt>
      <trkpt lat="48.93746" lon="-0.42012">
        <ele>247</ele>
        <time>2022-04-06T11:53:22Z</time>
      </trkpt>
      <trkpt lat="48.9373" lon="-0.41788">
        <ele>246</ele>
        <time>2022-04-06T11:53:56Z</time>
      </trkpt>
      <trkpt lat="48.93713" lon="-0.4165">
        <ele>248</ele>
        <time>2022-04-06T11:54:18Z</time>
      </trkpt>
      <trkpt lat="48.93702" lon="-0.41533">
        <ele>252</ele>
        <time>2022-04-06T11:54:36Z</time>
      </trkpt>
      <trkpt lat="48.9369" lon="-0.41467">
        <ele>255</ele>
        <time>2022-04-06T11:54:46Z</time>
      </trkpt>
      <trkpt lat="48.9367" lon="-0.41463">
        <ele>255</ele>
        <time>2022-04-06T11:54:51Z</time>
      </trkpt>
      <trkpt lat="48.93652" lon="-0.41454">
        <ele>255</ele>
        <time>2022-04-06T11:54:56Z</time>
      </trkpt>
      <trkpt lat="48.93592" lon="-0.41396">
        <ele>255</ele>
        <time>2022-04-06T11:55:12Z</time>
      </trkpt>
      <trkpt lat="48.93524" lon="-0.4135">
        <ele>255</ele>
        <time>2022-04-06T11:55:30Z</time>
      </trkpt>
      <trkpt lat="48.93427" lon="-0.41315">
        <ele>251</ele>
        <time>2022-04-06T11:55:53Z</time>
      </trkpt>
      <trkpt lat="48.93316" lon="-0.41213">
        <ele>252</ele>
        <time>2022-04-06T11:56:23Z</time>
      </trkpt>
      <trkpt lat="48.93265" lon="-0.41176">
        <ele>250</ele>
        <time>2022-04-06T11:56:36Z</time>
      </trkpt>
      <trkpt lat="48.9321" lon="-0.41156">
        <ele>246</ele>
        <time>2022-04-06T11:56:50Z</time>
      </trkpt>
      <trkpt lat="48.93175" lon="-0.41128">
        <ele>247</ele>
        <time>2022-04-06T11:56:59Z</time>
      </trkpt>
      <trkpt lat="48.93123" lon="-0.41062">
        <ele>249</ele>
        <time>2022-04-06T11:57:15Z</time>
      </trkpt>
      <trkpt lat="48.93006" lon="-0.4103">
        <ele>242</ele>
        <time>2022-04-06T11:57:42Z</time>
      </trkpt>
      <trkpt lat="48.92905" lon="-0.4097">
        <ele>241</ele>
        <time>2022-04-06T11:58:08Z</time>
      </trkpt>
      <trkpt lat="48.92856" lon="-0.40945">
        <ele>242</ele>
        <time>2022-04-06T11:58:20Z</time>
      </trkpt>
      <trkpt lat="48.92808" lon="-0.40934">
        <ele>243</ele>
        <time>2022-04-06T11:58:31Z</time>
      </trkpt>
      <trkpt lat="48.92764" lon="-0.4092">
        <ele>246</ele>
        <time>2022-04-06T11:58:42Z</time>
      </trkpt>
      <trkpt lat="48.92731" lon="-0.40901">
        <ele>248</ele>
        <time>2022-04-06T11:58:50Z</time>
      </trkpt>
      <trkpt lat="48.92686" lon="-0.40863">
        <ele>250</ele>
        <time>2022-04-06T11:59:02Z</time>
      </trkpt>
      <trkpt lat="48.92635" lon="-0.40849">
        <ele>251</ele>
        <time>2022-04-06T11:59:14Z</time>
      </trkpt>
      <trkpt lat="48.92535" lon="-0.40832">
        <ele>253</ele>
        <time>2022-04-06T11:59:37Z</time>
      </trkpt>
      <trkpt lat="48.92487" lon="-0.40816">
        <ele>256</ele>
        <time>2022-04-06T11:59:49Z</time>
      </trkpt>
      <trkpt lat="48.92443" lon="-0.40793">
        <ele>260</ele>
        <time>2022-04-06T12:00:00Z</time>
      </trkpt>
      <trkpt lat="48.92415" lon="-0.40751">
        <ele>268</ele>
        <time>2022-04-06T12:00:09Z</time>
      </trkpt>
      <trkpt lat="48.92376" lon="-0.40744">
        <ele>271</ele>
        <time>2022-04-06T12:00:18Z</time>
      </trkpt>
      <trkpt lat="48.92314" lon="-0.40741">
        <ele>277</ele>
        <time>2022-04-06T12:00:33Z</time>
      </trkpt>
      <trkpt lat="48.92255" lon="-0.40723">
        <ele>285</ele>
        <time>2022-04-06T12:00:47Z</time>
      </trkpt>
      <trkpt lat="48.92194" lon="-0.40691">
        <ele>289</ele>
        <time>2022-04-06T12:01:02Z</time>
      </trkpt>
      <trkpt lat="48.92141" lon="-0.40667">
        <ele>290</ele>
        <time>2022-04-06T12:01:15Z</time>
      </trkpt>
      <trkpt lat="48.92123" lon="-0.40665">
        <ele>289</ele>
        <time>2022-04-06T12:01:19Z</time>
      </trkpt>
      <trkpt lat="48.92059" lon="-0.40644">
        <ele>288</ele>
        <time>2022-04-06T12:01:34Z</time>
      </trkpt>
      <trkpt lat="48.92003" lon="-0.40602">
        <ele>287</ele>
        <time>2022-04-06T12:01:49Z</time>
      </trkpt>
      <trkpt lat="48.91966" lon="-0.4057">
        <ele>285</ele>
        <time>2022-04-06T12:01:59Z</time>
      </trkpt>
      <trkpt lat="48.91922" lon="-0.40502">
        <ele>281</ele>
        <time>2022-04-06T12:02:13Z</time>
      </trkpt>
      <trkpt lat="48.91877" lon="-0.40412">
        <ele>276</ele>
        <time>2022-04-06T12:02:31Z</time>
      </trkpt>
      <trkpt lat="48.9184" lon="-0.40323">
        <ele>271</ele>
        <time>2022-04-06T12:02:47Z</time>
      </trkpt>
      <trkpt lat="48.91818" lon="-0.40213">
        <ele>268</ele>
        <time>2022-04-06T12:03:04Z</time>
      </trkpt>
      <trkpt lat="48.91785" lon="-0.40119">
        <ele>264</ele>
        <time>2022-04-06T12:03:21Z</time>
      </trkpt>
      <trkpt lat="48.91606" lon="-0.39804">
        <ele>256</ele>
        <time>2022-04-06T12:04:25Z</time>
      </trkpt>
      <trkpt lat="48.91548" lon="-0.39937">
        <ele>253</ele>
        <time>2022-04-06T12:04:49Z</time>
      </trkpt>
      <trkpt lat="48.91517" lon="-0.39996">
        <ele>252</ele>
        <time>2022-04-06T12:05:01Z</time>
      </trkpt>
      <trkpt lat="48.91486" lon="-0.40047">
        <ele>251</ele>
        <time>2022-04-06T12:05:11Z</time>
      </trkpt>
      <trkpt lat="48.91446" lon="-0.40084">
        <ele>247</ele>
        <time>2022-04-06T12:05:22Z</time>
      </trkpt>
      <trkpt lat="48.91399" lon="-0.40108">
        <ele>244</ele>
        <time>2022-04-06T12:05:34Z</time>
      </trkpt>
      <trkpt lat="48.91357" lon="-0.40138">
        <ele>239</ele>
        <time>2022-04-06T12:05:45Z</time>
      </trkpt>
      <trkpt lat="48.91316" lon="-0.40177">
        <ele>233</ele>
        <time>2022-04-06T12:05:56Z</time>
      </trkpt>
      <trkpt lat="48.91285" lon="-0.40235">
        <ele>229</ele>
        <time>2022-04-06T12:06:08Z</time>
      </trkpt>
      <trkpt lat="48.9126" lon="-0.40315">
        <ele>223</ele>
        <time>2022-04-06T12:06:21Z</time>
      </trkpt>
      <trkpt lat="48.91263" lon="-0.40364">
        <ele>220</ele>
        <time>2022-04-06T12:06:29Z</time>
      </trkpt>
      <trkpt lat="48.91259" lon="-0.40437">
        <ele>220</ele>
        <time>2022-04-06T12:06:40Z</time>
      </trkpt>
      <trkpt lat="48.91243" lon="-0.40442">
        <ele>218</ele>
        <time>2022-04-06T12:06:44Z</time>
      </trkpt>
      <trkpt lat="48.91219" lon="-0.40437">
        <ele>217</ele>
        <time>2022-04-06T12:06:49Z</time>
      </trkpt>
      <trkpt lat="48.91203" lon="-0.40438">
        <ele>217</ele>
        <time>2022-04-06T12:06:53Z</time>
      </trkpt>
      <trkpt lat="48.9115" lon="-0.40476">
        <ele>216</ele>
        <time>2022-04-06T12:07:07Z</time>
      </trkpt>
      <trkpt lat="48.91113" lon="-0.40499">
        <ele>214</ele>
        <time>2022-04-06T12:07:16Z</time>
      </trkpt>
      <trkpt lat="48.91086" lon="-0.40507">
        <ele>214</ele>
        <time>2022-04-06T12:07:23Z</time>
      </trkpt>
      <trkpt lat="48.91026" lon="-0.40512">
        <ele>216</ele>
        <time>2022-04-06T12:07:37Z</time>
      </trkpt>
      <trkpt lat="48.90977" lon="-0.40501">
        <ele>215</ele>
        <time>2022-04-06T12:07:48Z</time>
      </trkpt>
      <trkpt lat="48.90931" lon="-0.40481">
        <ele>213</ele>
        <time>2022-04-06T12:07:59Z</time>
      </trkpt>
      <trkpt lat="48.90894" lon="-0.40472">
        <ele>213</ele>
        <time>2022-04-06T12:08:08Z</time>
      </trkpt>
      <trkpt lat="48.90868" lon="-0.40492">
        <ele>217</ele>
        <time>2022-04-06T12:08:15Z</time>
      </trkpt>
      <trkpt lat="48.90832" lon="-0.40574">
        <ele>223</ele>
        <time>2022-04-06T12:08:30Z</time>
      </trkpt>
      <trkpt lat="48.90846" lon="-0.40666">
        <ele>226</ele>
        <time>2022-04-06T12:08:45Z</time>
      </trkpt>
      <trkpt lat="48.90842" lon="-0.40733">
        <ele>224</ele>
        <time>2022-04-06T12:08:55Z</time>
      </trkpt>
      <trkpt lat="48.90844" lon="-0.40765">
        <ele>223</ele>
        <time>2022-04-06T12:09:00Z</time>
      </trkpt>
      <trkpt lat="48.90843" lon="-0.40898">
        <ele>216</ele>
        <time>2022-04-06T12:09:20Z</time>
      </trkpt>
      <trkpt lat="48.908" lon="-0.41048">
        <ele>210</ele>
        <time>2022-04-06T12:09:45Z</time>
      </trkpt>
      <trkpt lat="48.90784" lon="-0.41117">
        <ele>208</ele>
        <time>2022-04-06T12:09:57Z</time>
      </trkpt>
      <trkpt lat="48.90764" lon="-0.41272">
        <ele>197</ele>
        <time>2022-04-06T12:10:21Z</time>
      </trkpt>
      <trkpt lat="48.90756" lon="-0.41298">
        <ele>194</ele>
        <time>2022-04-06T12:10:25Z</time>
      </trkpt>
      <trkpt lat="48.90751" lon="-0.41332">
        <ele>190</ele>
        <time>2022-04-06T12:10:31Z</time>
      </trkpt>
      <trkpt lat="48.9073" lon="-0.41364">
        <ele>183</ele>
        <time>2022-04-06T12:10:38Z</time>
      </trkpt>
      <trkpt lat="48.90721" lon="-0.414">
        <ele>176</ele>
        <time>2022-04-06T12:10:43Z</time>
      </trkpt>
      <trkpt lat="48.90674" lon="-0.4147">
        <ele>166</ele>
        <time>2022-04-06T12:10:59Z</time>
      </trkpt>
      <trkpt lat="48.90633" lon="-0.41518">
        <ele>159</ele>
        <time>2022-04-06T12:11:11Z</time>
      </trkpt>
      <trkpt lat="48.90621" lon="-0.41536">
        <ele>157</ele>
        <time>2022-04-06T12:11:15Z</time>
      </trkpt>
      <trkpt lat="48.90621" lon="-0.41546">
        <ele>157</ele>
        <time>2022-04-06T12:11:16Z</time>
      </trkpt>
      <trkpt lat="48.90665" lon="-0.41682">
        <ele>152</ele>
        <time>2022-04-06T12:11:40Z</time>
      </trkpt>
      <trkpt lat="48.90698" lon="-0.41989">
        <ele>159</ele>
        <time>2022-04-06T12:12:27Z</time>
      </trkpt>
      <trkpt lat="48.90723" lon="-0.42083">
        <ele>165</ele>
        <time>2022-04-06T12:12:43Z</time>
      </trkpt>
      <trkpt lat="48.90752" lon="-0.42168">
        <ele>169</ele>
        <time>2022-04-06T12:12:58Z</time>
      </trkpt>
      <trkpt lat="48.90793" lon="-0.42252">
        <ele>175</ele>
        <time>2022-04-06T12:13:14Z</time>
      </trkpt>
      <trkpt lat="48.90839" lon="-0.42337">
        <ele>178</ele>
        <time>2022-04-06T12:13:31Z</time>
      </trkpt>
      <trkpt lat="48.90894" lon="-0.42458">
        <ele>182</ele>
        <time>2022-04-06T12:13:53Z</time>
      </trkpt>
      <trkpt lat="48.90919" lon="-0.42499">
        <ele>184</ele>
        <time>2022-04-06T12:14:02Z</time>
      </trkpt>
      <trkpt lat="48.90926" lon="-0.42517">
        <ele>185</ele>
        <time>2022-04-06T12:14:05Z</time>
      </trkpt>
      <trkpt lat="48.90922" lon="-0.42551">
        <ele>184</ele>
        <time>2022-04-06T12:14:10Z</time>
      </trkpt>
      <trkpt lat="48.90896" lon="-0.42599">
        <ele>182</ele>
        <time>2022-04-06T12:14:20Z</time>
      </trkpt>
      <trkpt lat="48.90857" lon="-0.42645">
        <ele>180</ele>
        <time>2022-04-06T12:14:31Z</time>
      </trkpt>
      <trkpt lat="48.90822" lon="-0.42703">
        <ele>179</ele>
        <time>2022-04-06T12:14:43Z</time>
      </trkpt>
      <trkpt lat="48.908" lon="-0.42745">
        <ele>178</ele>
        <time>2022-04-06T12:14:52Z</time>
      </trkpt>
      <trkpt lat="48.90795" lon="-0.4278">
        <ele>179</ele>
        <time>2022-04-06T12:14:57Z</time>
      </trkpt>
      <trkpt lat="48.908" lon="-0.42875">
        <ele>184</ele>
        <time>2022-04-06T12:15:12Z</time>
      </trkpt>
      <trkpt lat="48.9081" lon="-0.42989">
        <ele>188</ele>
        <time>2022-04-06T12:15:29Z</time>
      </trkpt>
      <trkpt lat="48.90823" lon="-0.43086">
        <ele>191</ele>
        <time>2022-04-06T12:15:45Z</time>
      </trkpt>
      <trkpt lat="48.90832" lon="-0.43175">
        <ele>194</ele>
        <time>2022-04-06T12:15:59Z</time>
      </trkpt>
      <trkpt lat="48.9083" lon="-0.4322">
        <ele>194</ele>
        <time>2022-04-06T12:16:05Z</time>
      </trkpt>
      <trkpt lat="48.90835" lon="-0.43317">
        <ele>189</ele>
        <time>2022-04-06T12:16:20Z</time>
      </trkpt>
      <trkpt lat="48.90845" lon="-0.43402">
        <ele>186</ele>
        <time>2022-04-06T12:16:34Z</time>
      </trkpt>
      <trkpt lat="48.90873" lon="-0.43554">
        <ele>182</ele>
        <time>2022-04-06T12:16:58Z</time>
      </trkpt>
      <trkpt lat="48.90869" lon="-0.43608">
        <ele>181</ele>
        <time>2022-04-06T12:17:06Z</time>
      </trkpt>
      <trkpt lat="48.90874" lon="-0.43652">
        <ele>178</ele>
        <time>2022-04-06T12:17:13Z</time>
      </trkpt>
      <trkpt lat="48.90887" lon="-0.43717">
        <ele>173</ele>
        <time>2022-04-06T12:17:23Z</time>
      </trkpt>
      <trkpt lat="48.90885" lon="-0.4376">
        <ele>169</ele>
        <time>2022-04-06T12:17:30Z</time>
      </trkpt>
      <trkpt lat="48.9088" lon="-0.43794">
        <ele>166</ele>
        <time>2022-04-06T12:17:35Z</time>
      </trkpt>
      <trkpt lat="48.90848" lon="-0.43857">
        <ele>161</ele>
        <time>2022-04-06T12:17:48Z</time>
      </trkpt>
      <trkpt lat="48.90827" lon="-0.43875">
        <ele>163</ele>
        <time>2022-04-06T12:17:53Z</time>
      </trkpt>
      <trkpt lat="48.90741" lon="-0.43903">
        <ele>160</ele>
        <time>2022-04-06T12:18:14Z</time>
      </trkpt>
      <trkpt lat="48.90658" lon="-0.43949">
        <ele>157</ele>
        <time>2022-04-06T12:18:34Z</time>
      </trkpt>
      <trkpt lat="48.90575" lon="-0.44021">
        <ele>153</ele>
        <time>2022-04-06T12:18:57Z</time>
      </trkpt>
      <trkpt lat="48.90495" lon="-0.44083">
        <ele>142</ele>
        <time>2022-04-06T12:19:18Z</time>
      </trkpt>
      <trkpt lat="48.90417" lon="-0.44141">
        <ele>132</ele>
        <time>2022-04-06T12:19:38Z</time>
      </trkpt>
      <trkpt lat="48.90345" lon="-0.44185">
        <ele>125</ele>
        <time>2022-04-06T12:19:56Z</time>
      </trkpt>
      <trkpt lat="48.90287" lon="-0.44274">
        <ele>122</ele>
        <time>2022-04-06T12:20:15Z</time>
      </trkpt>
      <trkpt lat="48.90199" lon="-0.44391">
        <ele>112</ele>
        <time>2022-04-06T12:20:43Z</time>
      </trkpt>
      <trkpt lat="48.90167" lon="-0.44457">
        <ele>110</ele>
        <time>2022-04-06T12:20:55Z</time>
      </trkpt>
      <trkpt lat="48.90128" lon="-0.44503">
        <ele>104</ele>
        <time>2022-04-06T12:21:07Z</time>
      </trkpt>
      <trkpt lat="48.90047" lon="-0.44585">
        <ele>97</ele>
        <time>2022-04-06T12:21:29Z</time>
      </trkpt>
      <trkpt lat="48.89972" lon="-0.44673">
        <ele>89</ele>
        <time>2022-04-06T12:21:52Z</time>
      </trkpt>
      <trkpt lat="48.8992" lon="-0.44764">
        <ele>84</ele>
        <time>2022-04-06T12:22:10Z</time>
      </trkpt>
      <trkpt lat="48.89884" lon="-0.44837">
        <ele>84</ele>
        <time>2022-04-06T12:22:24Z</time>
      </trkpt>
      <trkpt lat="48.89787" lon="-0.45117">
        <ele>72</ele>
        <time>2022-04-06T12:23:13Z</time>
      </trkpt>
      <trkpt lat="48.89775" lon="-0.45192">
        <ele>70</ele>
        <time>2022-04-06T12:23:25Z</time>
      </trkpt>
      <trkpt lat="48.8977" lon="-0.45267">
        <ele>68</ele>
        <time>2022-04-06T12:23:36Z</time>
      </trkpt>
      <trkpt lat="48.89755" lon="-0.45334">
        <ele>64</ele>
        <time>2022-04-06T12:23:47Z</time>
      </trkpt>
      <trkpt lat="48.89745" lon="-0.45404">
        <ele>62</ele>
        <time>2022-04-06T12:23:58Z</time>
      </trkpt>
      <trkpt lat="48.89742" lon="-0.45454">
        <ele>61</ele>
        <time>2022-04-06T12:24:06Z</time>
      </trkpt>
      <trkpt lat="48.89754" lon="-0.45521">
        <ele>59</ele>
        <time>2022-04-06T12:24:16Z</time>
      </trkpt>
      <trkpt lat="48.89773" lon="-0.45541">
        <ele>59</ele>
        <time>2022-04-06T12:24:22Z</time>
      </trkpt>
      <trkpt lat="48.89808" lon="-0.45557">
        <ele>58</ele>
        <time>2022-04-06T12:24:30Z</time>
      </trkpt>
      <trkpt lat="48.89861" lon="-0.45571">
        <ele>57</ele>
        <time>2022-04-06T12:24:43Z</time>
      </trkpt>
      <trkpt lat="48.89911" lon="-0.45569">
        <ele>57</ele>
        <time>2022-04-06T12:24:55Z</time>
      </trkpt>
      <trkpt lat="48.89961" lon="-0.45558">
        <ele>57</ele>
        <time>2022-04-06T12:25:06Z</time>
      </trkpt>
      <trkpt lat="48.89992" lon="-0.45561">
        <ele>57</ele>
        <time>2022-04-06T12:25:14Z</time>
      </trkpt>
      <trkpt lat="48.90044" lon="-0.45579">
        <ele>54</ele>
        <time>2022-04-06T12:25:26Z</time>
      </trkpt>
      <trkpt lat="48.90081" lon="-0.45582">
        <ele>52</ele>
        <time>2022-04-06T12:25:35Z</time>
      </trkpt>
      <trkpt lat="48.90106" lon="-0.45575">
        <ele>52</ele>
        <time>2022-04-06T12:25:41Z</time>
      </trkpt>
      <trkpt lat="48.90208" lon="-0.45566">
        <ele>50</ele>
        <time>2022-04-06T12:26:05Z</time>
      </trkpt>
      <trkpt lat="48.9024" lon="-0.45581">
        <ele>47</ele>
        <time>2022-04-06T12:26:12Z</time>
      </trkpt>
      <trkpt lat="48.90255" lon="-0.45611">
        <ele>43</ele>
        <time>2022-04-06T12:26:18Z</time>
      </trkpt>
      <trkpt lat="48.90288" lon="-0.4577">
        <ele>45</ele>
        <time>2022-04-06T12:26:44Z</time>
      </trkpt>
      <trkpt lat="48.90282" lon="-0.45802">
        <ele>49</ele>
        <time>2022-04-06T12:26:49Z</time>
      </trkpt>
      <trkpt lat="48.90251" lon="-0.45839">
        <ele>53</ele>
        <time>2022-04-06T12:26:58Z</time>
      </trkpt>
      <trkpt lat="48.90213" lon="-0.45875">
        <ele>56</ele>
        <time>2022-04-06T12:27:08Z</time>
      </trkpt>
      <trkpt lat="48.90165" lon="-0.45902">
        <ele>58</ele>
        <time>2022-04-06T12:27:20Z</time>
      </trkpt>
      <trkpt lat="48.90131" lon="-0.45948">
        <ele>62</ele>
        <time>2022-04-06T12:27:31Z</time>
      </trkpt>
      <trkpt lat="48.90086" lon="-0.46014">
        <ele>67</ele>
        <time>2022-04-06T12:27:46Z</time>
      </trkpt>
      <trkpt lat="48.90038" lon="-0.46079">
        <ele>71</ele>
        <time>2022-04-06T12:28:01Z</time>
      </trkpt>
      <trkpt lat="48.89955" lon="-0.46232">
        <ele>75</ele>
        <time>2022-04-06T12:28:31Z</time>
      </trkpt>
      <trkpt lat="48.89956" lon="-0.46248">
        <ele>75</ele>
        <time>2022-04-06T12:28:34Z</time>
      </trkpt>
      <trkpt lat="48.89987" lon="-0.46287">
        <ele>73</ele>
        <time>2022-04-06T12:28:43Z</time>
      </trkpt>
      <trkpt lat="48.90005" lon="-0.46282">
        <ele>73</ele>
        <time>2022-04-06T12:28:47Z</time>
      </trkpt>
      <trkpt lat="48.90051" lon="-0.46278">
        <ele>72</ele>
        <time>2022-04-06T12:28:58Z</time>
      </trkpt>
      <trkpt lat="48.90098" lon="-0.46278">
        <ele>71</ele>
        <time>2022-04-06T12:29:09Z</time>
      </trkpt>
      <trkpt lat="48.90137" lon="-0.46273">
        <ele>71</ele>
        <time>2022-04-06T12:29:18Z</time>
      </trkpt>
      <trkpt lat="48.90206" lon="-0.46293">
        <ele>69</ele>
        <time>2022-04-06T12:29:35Z</time>
      </trkpt>
      <trkpt lat="48.90276" lon="-0.46336">
        <ele>68</ele>
        <time>2022-04-06T12:29:52Z</time>
      </trkpt>
      <trkpt lat="48.90343" lon="-0.46393">
        <ele>67</ele>
        <time>2022-04-06T12:30:10Z</time>
      </trkpt>
      <trkpt lat="48.904" lon="-0.46456">
        <ele>66</ele>
        <time>2022-04-06T12:30:27Z</time>
      </trkpt>
      <trkpt lat="48.90479" lon="-0.46593">
        <ele>65</ele>
        <time>2022-04-06T12:30:55Z</time>
      </trkpt>
      <trkpt lat="48.90545" lon="-0.46735">
        <ele>64</ele>
        <time>2022-04-06T12:31:21Z</time>
      </trkpt>
      <trkpt lat="48.9057" lon="-0.46763">
        <ele>64</ele>
        <time>2022-04-06T12:31:28Z</time>
      </trkpt>
      <trkpt lat="48.90642" lon="-0.46875">
        <ele>62</ele>
        <time>2022-04-06T12:31:53Z</time>
      </trkpt>
      <trkpt lat="48.90853" lon="-0.46997">
        <ele>50</ele>
        <time>2022-04-06T12:32:45Z</time>
      </trkpt>
      <trkpt lat="48.90875" lon="-0.47021">
        <ele>48</ele>
        <time>2022-04-06T12:32:52Z</time>
      </trkpt>
      <trkpt lat="48.90895" lon="-0.47088">
        <ele>46</ele>
        <time>2022-04-06T12:33:03Z</time>
      </trkpt>
      <trkpt lat="48.90877" lon="-0.47316">
        <ele>44</ele>
        <time>2022-04-06T12:33:38Z</time>
      </trkpt>
      <trkpt lat="48.9088" lon="-0.47452">
        <ele>50</ele>
        <time>2022-04-06T12:33:59Z</time>
      </trkpt>
      <trkpt lat="48.90886" lon="-0.47513">
        <ele>54</ele>
        <time>2022-04-06T12:34:08Z</time>
      </trkpt>
      <trkpt lat="48.90897" lon="-0.47559">
        <ele>57</ele>
        <time>2022-04-06T12:34:16Z</time>
      </trkpt>
      <trkpt lat="48.90915" lon="-0.47594">
        <ele>59</ele>
        <time>2022-04-06T12:34:23Z</time>
      </trkpt>
      <trkpt lat="48.90937" lon="-0.47615">
        <ele>61</ele>
        <time>2022-04-06T12:34:29Z</time>
      </trkpt>
      <trkpt lat="48.9096" lon="-0.4763">
        <ele>61</ele>
        <time>2022-04-06T12:34:35Z</time>
      </trkpt>
      <trkpt lat="48.90999" lon="-0.47636">
        <ele>56</ele>
        <time>2022-04-06T12:34:44Z</time>
      </trkpt>
      <trkpt lat="48.9107" lon="-0.47625">
        <ele>56</ele>
        <time>2022-04-06T12:35:01Z</time>
      </trkpt>
      <trkpt lat="48.91309" lon="-0.47604">
        <ele>46</ele>
        <time>2022-04-06T12:35:56Z</time>
      </trkpt>
      <trkpt lat="48.91365" lon="-0.47615">
        <ele>47</ele>
        <time>2022-04-06T12:36:10Z</time>
      </trkpt>
      <trkpt lat="48.91435" lon="-0.47609">
        <ele>46</ele>
        <time>2022-04-06T12:36:26Z</time>
      </trkpt>
      <trkpt lat="48.91576" lon="-0.4764">
        <ele>45</ele>
        <time>2022-04-06T12:36:59Z</time>
      </trkpt>
      <trkpt lat="48.91648" lon="-0.47644">
        <ele>43</ele>
        <time>2022-04-06T12:37:16Z</time>
      </trkpt>
      <trkpt lat="48.9167" lon="-0.47658">
        <ele>45</ele>
        <time>2022-04-06T12:37:22Z</time>
      </trkpt>
      <trkpt lat="48.91711" lon="-0.4767">
        <ele>46</ele>
        <time>2022-04-06T12:37:31Z</time>
      </trkpt>
      <trkpt lat="48.91764" lon="-0.47675">
        <ele>47</ele>
        <time>2022-04-06T12:37:44Z</time>
      </trkpt>
      <trkpt lat="48.91817" lon="-0.47676">
        <ele>47</ele>
        <time>2022-04-06T12:37:56Z</time>
      </trkpt>
      <trkpt lat="48.91837" lon="-0.4768">
        <ele>47</ele>
        <time>2022-04-06T12:38:01Z</time>
      </trkpt>
      <trkpt lat="48.91871" lon="-0.47671">
        <ele>47</ele>
        <time>2022-04-06T12:38:09Z</time>
      </trkpt>
      <trkpt lat="48.91907" lon="-0.47644">
        <ele>45</ele>
        <time>2022-04-06T12:38:18Z</time>
      </trkpt>
      <trkpt lat="48.91986" lon="-0.47607">
        <ele>45</ele>
        <time>2022-04-06T12:38:38Z</time>
      </trkpt>
      <trkpt lat="48.9207" lon="-0.47582">
        <ele>48</ele>
        <time>2022-04-06T12:38:58Z</time>
      </trkpt>
      <trkpt lat="48.9224" lon="-0.4754">
        <ele>49</ele>
        <time>2022-04-06T12:39:38Z</time>
      </trkpt>
      <trkpt lat="48.92259" lon="-0.47538">
        <ele>49</ele>
        <time>2022-04-06T12:39:42Z</time>
      </trkpt>
      <trkpt lat="48.92267" lon="-0.47549">
        <ele>50</ele>
        <time>2022-04-06T12:39:45Z</time>
      </trkpt>
      <trkpt lat="48.92323" lon="-0.47794">
        <ele>54</ele>
        <time>2022-04-06T12:40:25Z</time>
      </trkpt>
      <trkpt lat="48.92382" lon="-0.47914">
        <ele>52</ele>
        <time>2022-04-06T12:40:48Z</time>
      </trkpt>
      <trkpt lat="48.92433" lon="-0.4799">
        <ele>47</ele>
        <time>2022-04-06T12:41:04Z</time>
      </trkpt>
      <trkpt lat="48.92448" lon="-0.48021">
        <ele>44</ele>
        <time>2022-04-06T12:41:10Z</time>
      </trkpt>
      <trkpt lat="48.92442" lon="-0.48047">
        <ele>42</ele>
        <time>2022-04-06T12:41:14Z</time>
      </trkpt>
      <trkpt lat="48.92434" lon="-0.48062">
        <ele>42</ele>
        <time>2022-04-06T12:41:17Z</time>
      </trkpt>
      <trkpt lat="48.92433" lon="-0.48078">
        <ele>41</ele>
        <time>2022-04-06T12:41:20Z</time>
      </trkpt>
      <trkpt lat="48.92467" lon="-0.48091">
        <ele>39</ele>
        <time>2022-04-06T12:41:28Z</time>
      </trkpt>
      <trkpt lat="48.92507" lon="-0.4809">
        <ele>37</ele>
        <time>2022-04-06T12:41:37Z</time>
      </trkpt>
      <trkpt lat="48.9251" lon="-0.48123">
        <ele>37</ele>
        <time>2022-04-06T12:41:42Z</time>
      </trkpt>
      <trkpt lat="48.92467" lon="-0.48169">
        <ele>40</ele>
        <time>2022-04-06T12:41:55Z</time>
      </trkpt>
      <trkpt lat="48.92466" lon="-0.48216">
        <ele>43</ele>
        <time>2022-04-06T12:42:02Z</time>
      </trkpt>
      <trkpt lat="48.9247" lon="-0.48276">
        <ele>45</ele>
        <time>2022-04-06T12:42:11Z</time>
      </trkpt>
      <trkpt lat="48.92465" lon="-0.48323">
        <ele>47</ele>
        <time>2022-04-06T12:42:19Z</time>
      </trkpt>
      <trkpt lat="48.92465" lon="-0.48373">
        <ele>48</ele>
        <time>2022-04-06T12:42:26Z</time>
      </trkpt>
      <trkpt lat="48.92461" lon="-0.48445">
        <ele>50</ele>
        <time>2022-04-06T12:42:37Z</time>
      </trkpt>
      <trkpt lat="48.9247" lon="-0.48568">
        <ele>52</ele>
        <time>2022-04-06T12:42:56Z</time>
      </trkpt>
      <trkpt lat="48.9246" lon="-0.48645">
        <ele>52</ele>
        <time>2022-04-06T12:43:08Z</time>
      </trkpt>
      <trkpt lat="48.92454" lon="-0.48729">
        <ele>51</ele>
        <time>2022-04-06T12:43:21Z</time>
      </trkpt>
      <trkpt lat="48.92443" lon="-0.48819">
        <ele>51</ele>
        <time>2022-04-06T12:43:35Z</time>
      </trkpt>
      <trkpt lat="48.92436" lon="-0.48858">
        <ele>52</ele>
        <time>2022-04-06T12:43:42Z</time>
      </trkpt>
      <trkpt lat="48.92425" lon="-0.48893">
        <ele>52</ele>
        <time>2022-04-06T12:43:47Z</time>
      </trkpt>
      <trkpt lat="48.92429" lon="-0.48917">
        <ele>51</ele>
        <time>2022-04-06T12:43:51Z</time>
      </trkpt>
      <trkpt lat="48.92445" lon="-0.48936">
        <ele>49</ele>
        <time>2022-04-06T12:43:56Z</time>
      </trkpt>
      <trkpt lat="48.92467" lon="-0.48954">
        <ele>45</ele>
        <time>2022-04-06T12:44:02Z</time>
      </trkpt>
      <trkpt lat="48.92472" lon="-0.48964">
        <ele>45</ele>
        <time>2022-04-06T12:44:04Z</time>
      </trkpt>
      <trkpt lat="48.92475" lon="-0.49018">
        <ele>43</ele>
        <time>2022-04-06T12:44:12Z</time>
      </trkpt>
      <trkpt lat="48.92471" lon="-0.4905">
        <ele>41</ele>
        <time>2022-04-06T12:44:17Z</time>
      </trkpt>
      <trkpt lat="48.92459" lon="-0.4908">
        <ele>40</ele>
        <time>2022-04-06T12:44:22Z</time>
      </trkpt>
      <trkpt lat="48.92457" lon="-0.49124">
        <ele>42</ele>
        <time>2022-04-06T12:44:29Z</time>
      </trkpt>
      <trkpt lat="48.9247" lon="-0.49147">
        <ele>42</ele>
        <time>2022-04-06T12:44:34Z</time>
      </trkpt>
      <trkpt lat="48.92479" lon="-0.49196">
        <ele>43</ele>
        <time>2022-04-06T12:44:42Z</time>
      </trkpt>
      <trkpt lat="48.92479" lon="-0.49253">
        <ele>45</ele>
        <time>2022-04-06T12:44:50Z</time>
      </trkpt>
      <trkpt lat="48.92456" lon="-0.49369">
        <ele>46</ele>
        <time>2022-04-06T12:45:09Z</time>
      </trkpt>
      <trkpt lat="48.92448" lon="-0.49435">
        <ele>46</ele>
        <time>2022-04-06T12:45:19Z</time>
      </trkpt>
      <trkpt lat="48.92449" lon="-0.4952">
        <ele>46</ele>
        <time>2022-04-06T12:45:32Z</time>
      </trkpt>
      <trkpt lat="48.92455" lon="-0.49607">
        <ele>46</ele>
        <time>2022-04-06T12:45:46Z</time>
      </trkpt>
      <trkpt lat="48.92452" lon="-0.49623">
        <ele>47</ele>
        <time>2022-04-06T12:45:48Z</time>
      </trkpt>
      <trkpt lat="48.92426" lon="-0.49663">
        <ele>49</ele>
        <time>2022-04-06T12:45:57Z</time>
      </trkpt>
      <trkpt lat="48.92397" lon="-0.49696">
        <ele>50</ele>
        <time>2022-04-06T12:46:05Z</time>
      </trkpt>
      <trkpt lat="48.92387" lon="-0.49725">
        <ele>49</ele>
        <time>2022-04-06T12:46:10Z</time>
      </trkpt>
      <trkpt lat="48.92376" lon="-0.49794">
        <ele>48</ele>
        <time>2022-04-06T12:46:21Z</time>
      </trkpt>
      <trkpt lat="48.9235" lon="-0.49888">
        <ele>47</ele>
        <time>2022-04-06T12:46:37Z</time>
      </trkpt>
      <trkpt lat="48.9232" lon="-0.50021">
        <ele>45</ele>
        <time>2022-04-06T12:46:59Z</time>
      </trkpt>
      <trkpt lat="48.92316" lon="-0.50093">
        <ele>44</ele>
        <time>2022-04-06T12:47:10Z</time>
      </trkpt>
      <trkpt lat="48.92305" lon="-0.50111">
        <ele>44</ele>
        <time>2022-04-06T12:47:13Z</time>
      </trkpt>
      <trkpt lat="48.9229" lon="-0.50124">
        <ele>45</ele>
        <time>2022-04-06T12:47:17Z</time>
      </trkpt>
      <trkpt lat="48.92276" lon="-0.50152">
        <ele>45</ele>
        <time>2022-04-06T12:47:23Z</time>
      </trkpt>
      <trkpt lat="48.92272" lon="-0.50209">
        <ele>45</ele>
        <time>2022-04-06T12:47:32Z</time>
      </trkpt>
      <trkpt lat="48.92275" lon="-0.50303">
        <ele>45</ele>
        <time>2022-04-06T12:47:46Z</time>
      </trkpt>
      <trkpt lat="48.92281" lon="-0.50364">
        <ele>46</ele>
        <time>2022-04-06T12:47:56Z</time>
      </trkpt>
      <trkpt lat="48.92297" lon="-0.50434">
        <ele>46</ele>
        <time>2022-04-06T12:48:07Z</time>
      </trkpt>
      <trkpt lat="48.92292" lon="-0.50479">
        <ele>45</ele>
        <time>2022-04-06T12:48:14Z</time>
      </trkpt>
      <trkpt lat="48.92278" lon="-0.50532">
        <ele>47</ele>
        <time>2022-04-06T12:48:23Z</time>
      </trkpt>
      <trkpt lat="48.92287" lon="-0.50544">
        <ele>48</ele>
        <time>2022-04-06T12:48:26Z</time>
      </trkpt>
      <trkpt lat="48.92327" lon="-0.50583">
        <ele>50</ele>
        <time>2022-04-06T12:48:37Z</time>
      </trkpt>
      <trkpt lat="48.92367" lon="-0.50627">
        <ele>52</ele>
        <time>2022-04-06T12:48:48Z</time>
      </trkpt>
      <trkpt lat="48.92403" lon="-0.5069">
        <ele>50</ele>
        <time>2022-04-06T12:49:01Z</time>
      </trkpt>
      <trkpt lat="48.92423" lon="-0.50745">
        <ele>49</ele>
        <time>2022-04-06T12:49:11Z</time>
      </trkpt>
      <trkpt lat="48.92436" lon="-0.50822">
        <ele>50</ele>
        <time>2022-04-06T12:49:23Z</time>
      </trkpt>
      <trkpt lat="48.92438" lon="-0.50878">
        <ele>48</ele>
        <time>2022-04-06T12:49:31Z</time>
      </trkpt>
      <trkpt lat="48.92438" lon="-0.50965">
        <ele>48</ele>
        <time>2022-04-06T12:49:45Z</time>
      </trkpt>
      <trkpt lat="48.92431" lon="-0.51029">
        <ele>48</ele>
        <time>2022-04-06T12:49:55Z</time>
      </trkpt>
      <trkpt lat="48.92413" lon="-0.51083">
        <ele>48</ele>
        <time>2022-04-06T12:50:04Z</time>
      </trkpt>
      <trkpt lat="48.92386" lon="-0.51138">
        <ele>54</ele>
        <time>2022-04-06T12:50:15Z</time>
      </trkpt>
      <trkpt lat="48.92355" lon="-0.51186">
        <ele>59</ele>
        <time>2022-04-06T12:50:25Z</time>
      </trkpt>
      <trkpt lat="48.92332" lon="-0.51227">
        <ele>59</ele>
        <time>2022-04-06T12:50:33Z</time>
      </trkpt>
      <trkpt lat="48.92314" lon="-0.51343">
        <ele>60</ele>
        <time>2022-04-06T12:50:51Z</time>
      </trkpt>
      <trkpt lat="48.92331" lon="-0.51397">
        <ele>55</ele>
        <time>2022-04-06T12:51:01Z</time>
      </trkpt>
      <trkpt lat="48.92346" lon="-0.51504">
        <ele>60</ele>
        <time>2022-04-06T12:51:17Z</time>
      </trkpt>
      <trkpt lat="48.92347" lon="-0.51585">
        <ele>62</ele>
        <time>2022-04-06T12:51:30Z</time>
      </trkpt>
      <trkpt lat="48.92324" lon="-0.51788">
        <ele>67</ele>
        <time>2022-04-06T12:52:01Z</time>
      </trkpt>
      <trkpt lat="48.92324" lon="-0.51888">
        <ele>70</ele>
        <time>2022-04-06T12:52:17Z</time>
      </trkpt>
      <trkpt lat="48.9233" lon="-0.52068">
        <ele>70</ele>
        <time>2022-04-06T12:52:44Z</time>
      </trkpt>
      <trkpt lat="48.92341" lon="-0.5215">
        <ele>76</ele>
        <time>2022-04-06T12:52:57Z</time>
      </trkpt>
      <trkpt lat="48.92418" lon="-0.52429">
        <ele>87</ele>
        <time>2022-04-06T12:53:44Z</time>
      </trkpt>
      <trkpt lat="48.92418" lon="-0.52623">
        <ele>90</ele>
        <time>2022-04-06T12:54:13Z</time>
      </trkpt>
      <trkpt lat="48.92412" lon="-0.52686">
        <ele>93</ele>
        <time>2022-04-06T12:54:23Z</time>
      </trkpt>
      <trkpt lat="48.92408" lon="-0.529">
        <ele>103</ele>
        <time>2022-04-06T12:54:56Z</time>
      </trkpt>
      <trkpt lat="48.92389" lon="-0.52931">
        <ele>107</ele>
        <time>2022-04-06T12:55:03Z</time>
      </trkpt>
      <trkpt lat="48.9237" lon="-0.52971">
        <ele>108</ele>
        <time>2022-04-06T12:55:10Z</time>
      </trkpt>
      <trkpt lat="48.92357" lon="-0.53009">
        <ele>106</ele>
        <time>2022-04-06T12:55:17Z</time>
      </trkpt>
      <trkpt lat="48.92359" lon="-0.53085">
        <ele>105</ele>
        <time>2022-04-06T12:55:28Z</time>
      </trkpt>
      <trkpt lat="48.92364" lon="-0.5316">
        <ele>109</ele>
        <time>2022-04-06T12:55:40Z</time>
      </trkpt>
      <trkpt lat="48.92373" lon="-0.53233">
        <ele>112</ele>
        <time>2022-04-06T12:55:51Z</time>
      </trkpt>
      <trkpt lat="48.92397" lon="-0.53381">
        <ele>111</ele>
        <time>2022-04-06T12:56:15Z</time>
      </trkpt>
      <trkpt lat="48.92404" lon="-0.53458">
        <ele>111</ele>
        <time>2022-04-06T12:56:27Z</time>
      </trkpt>
      <trkpt lat="48.92406" lon="-0.53513">
        <ele>112</ele>
        <time>2022-04-06T12:56:35Z</time>
      </trkpt>
      <trkpt lat="48.92405" lon="-0.53572">
        <ele>113</ele>
        <time>2022-04-06T12:56:44Z</time>
      </trkpt>
      <trkpt lat="48.92411" lon="-0.53622">
        <ele>116</ele>
        <time>2022-04-06T12:56:52Z</time>
      </trkpt>
      <trkpt lat="48.92387" lon="-0.5379">
        <ele>123</ele>
        <time>2022-04-06T12:57:18Z</time>
      </trkpt>
      <trkpt lat="48.92385" lon="-0.53851">
        <ele>126</ele>
        <time>2022-04-06T12:57:28Z</time>
      </trkpt>
      <trkpt lat="48.92387" lon="-0.53913">
        <ele>127</ele>
        <time>2022-04-06T12:57:37Z</time>
      </trkpt>
      <trkpt lat="48.92405" lon="-0.5401">
        <ele>129</ele>
        <time>2022-04-06T12:57:53Z</time>
      </trkpt>
      <trkpt lat="48.92405" lon="-0.54061">
        <ele>128</ele>
        <time>2022-04-06T12:58:01Z</time>
      </trkpt>
      <trkpt lat="48.9241" lon="-0.5408">
        <ele>127</ele>
        <time>2022-04-06T12:58:04Z</time>
      </trkpt>
      <trkpt lat="48.92415" lon="-0.54094">
        <ele>127</ele>
        <time>2022-04-06T12:58:06Z</time>
      </trkpt>
      <trkpt lat="48.92423" lon="-0.54087">
        <ele>129</ele>
        <time>2022-04-06T12:58:08Z</time>
      </trkpt>
      <trkpt lat="48.92433" lon="-0.53963">
        <ele>135</ele>
        <time>2022-04-06T12:58:28Z</time>
      </trkpt>
      <trkpt lat="48.92446" lon="-0.53899">
        <ele>139</ele>
        <time>2022-04-06T12:58:38Z</time>
      </trkpt>
      <trkpt lat="48.92523" lon="-0.53897">
        <ele>165</ele>
        <time>2022-04-06T12:58:56Z</time>
      </trkpt>
      <trkpt lat="48.92534" lon="-0.53888">
        <ele>168</ele>
        <time>2022-04-06T12:58:59Z</time>
      </trkpt>
      <trkpt lat="48.92537" lon="-0.53867">
        <ele>168</ele>
        <time>2022-04-06T12:59:02Z</time>
      </trkpt>
      <trkpt lat="48.92539" lon="-0.53814">
        <ele>168</ele>
        <time>2022-04-06T12:59:10Z</time>
      </trkpt>
      <trkpt lat="48.9255" lon="-0.53757">
        <ele>170</ele>
        <time>2022-04-06T12:59:19Z</time>
      </trkpt>
      <trkpt lat="48.92566" lon="-0.53703">
        <ele>172</ele>
        <time>2022-04-06T12:59:28Z</time>
      </trkpt>
      <trkpt lat="48.92602" lon="-0.53624">
        <ele>178</ele>
        <time>2022-04-06T12:59:43Z</time>
      </trkpt>
      <trkpt lat="48.9263" lon="-0.53616">
        <ele>184</ele>
        <time>2022-04-06T12:59:50Z</time>
      </trkpt>
      <trkpt lat="48.92671" lon="-0.53612">
        <ele>192</ele>
        <time>2022-04-06T12:59:59Z</time>
      </trkpt>
      <trkpt lat="48.92714" lon="-0.53614">
        <ele>193</ele>
        <time>2022-04-06T13:00:09Z</time>
      </trkpt>
      <trkpt lat="48.92749" lon="-0.53619">
        <ele>194</ele>
        <time>2022-04-06T13:00:18Z</time>
      </trkpt>
      <trkpt lat="48.92775" lon="-0.53636">
        <ele>192</ele>
        <time>2022-04-06T13:00:24Z</time>
      </trkpt>
      <trkpt lat="48.92796" lon="-0.53641">
        <ele>190</ele>
        <time>2022-04-06T13:00:29Z</time>
      </trkpt>
      <trkpt lat="48.92822" lon="-0.53641">
        <ele>187</ele>
        <time>2022-04-06T13:00:35Z</time>
      </trkpt>
      <trkpt lat="48.92842" lon="-0.53647">
        <ele>186</ele>
        <time>2022-04-06T13:00:40Z</time>
      </trkpt>
      <trkpt lat="48.92875" lon="-0.53635">
        <ele>185</ele>
        <time>2022-04-06T13:00:48Z</time>
      </trkpt>
      <trkpt lat="48.92883" lon="-0.5361">
        <ele>183</ele>
        <time>2022-04-06T13:00:52Z</time>
      </trkpt>
      <trkpt lat="48.92883" lon="-0.53578">
        <ele>182</ele>
        <time>2022-04-06T13:00:57Z</time>
      </trkpt>
      <trkpt lat="48.92876" lon="-0.5354">
        <ele>179</ele>
        <time>2022-04-06T13:01:03Z</time>
      </trkpt>
      <trkpt lat="48.92884" lon="-0.53474">
        <ele>175</ele>
        <time>2022-04-06T13:01:13Z</time>
      </trkpt>
      <trkpt lat="48.92898" lon="-0.53448">
        <ele>173</ele>
        <time>2022-04-06T13:01:19Z</time>
      </trkpt>
      <trkpt lat="48.92924" lon="-0.53426">
        <ele>171</ele>
        <time>2022-04-06T13:01:26Z</time>
      </trkpt>
      <trkpt lat="48.92927" lon="-0.53402">
        <ele>169</ele>
        <time>2022-04-06T13:01:29Z</time>
      </trkpt>
      <trkpt lat="48.92939" lon="-0.5335">
        <ele>165</ele>
        <time>2022-04-06T13:01:38Z</time>
      </trkpt>
      <trkpt lat="48.92948" lon="-0.53326">
        <ele>163</ele>
        <time>2022-04-06T13:01:42Z</time>
      </trkpt>
      <trkpt lat="48.92966" lon="-0.53294">
        <ele>160</ele>
        <time>2022-04-06T13:01:48Z</time>
      </trkpt>
      <trkpt lat="48.92997" lon="-0.53267">
        <ele>157</ele>
        <time>2022-04-06T13:01:57Z</time>
      </trkpt>
      <trkpt lat="48.93038" lon="-0.53226">
        <ele>150</ele>
        <time>2022-04-06T13:02:08Z</time>
      </trkpt>
      <trkpt lat="48.93063" lon="-0.53208">
        <ele>147</ele>
        <time>2022-04-06T13:02:15Z</time>
      </trkpt>
      <trkpt lat="48.93088" lon="-0.53196">
        <ele>145</ele>
        <time>2022-04-06T13:02:21Z</time>
      </trkpt>
      <trkpt lat="48.9312" lon="-0.5321">
        <ele>139</ele>
        <time>2022-04-06T13:02:29Z</time>
      </trkpt>
      <trkpt lat="48.93136" lon="-0.53232">
        <ele>135</ele>
        <time>2022-04-06T13:02:34Z</time>
      </trkpt>
      <trkpt lat="48.93148" lon="-0.53274">
        <ele>133</ele>
        <time>2022-04-06T13:02:41Z</time>
      </trkpt>
      <trkpt lat="48.93158" lon="-0.53334">
        <ele>132</ele>
        <time>2022-04-06T13:02:50Z</time>
      </trkpt>
      <trkpt lat="48.93166" lon="-0.53421">
        <ele>138</ele>
        <time>2022-04-06T13:03:04Z</time>
      </trkpt>
      <trkpt lat="48.93175" lon="-0.53462">
        <ele>142</ele>
        <time>2022-04-06T13:03:10Z</time>
      </trkpt>
      <trkpt lat="48.93187" lon="-0.53458">
        <ele>141</ele>
        <time>2022-04-06T13:03:13Z</time>
      </trkpt>
      <trkpt lat="48.93209" lon="-0.53424">
        <ele>137</ele>
        <time>2022-04-06T13:03:20Z</time>
      </trkpt>
      <trkpt lat="48.93228" lon="-0.53416">
        <ele>136</ele>
        <time>2022-04-06T13:03:25Z</time>
      </trkpt>
      <trkpt lat="48.9326" lon="-0.5343">
        <ele>137</ele>
        <time>2022-04-06T13:03:33Z</time>
      </trkpt>
      <trkpt lat="48.93291" lon="-0.53438">
        <ele>142</ele>
        <time>2022-04-06T13:03:40Z</time>
      </trkpt>
      <trkpt lat="48.93346" lon="-0.53431">
        <ele>148</ele>
        <time>2022-04-06T13:03:53Z</time>
      </trkpt>
      <trkpt lat="48.93366" lon="-0.53378">
        <ele>147</ele>
        <time>2022-04-06T13:04:02Z</time>
      </trkpt>
      <trkpt lat="48.93388" lon="-0.53306">
        <ele>143</ele>
        <time>2022-04-06T13:04:15Z</time>
      </trkpt>
      <trkpt lat="48.93392" lon="-0.5327">
        <ele>141</ele>
        <time>2022-04-06T13:04:20Z</time>
      </trkpt>
      <trkpt lat="48.93404" lon="-0.53256">
        <ele>140</ele>
        <time>2022-04-06T13:04:24Z</time>
      </trkpt>
      <trkpt lat="48.93429" lon="-0.53264">
        <ele>141</ele>
        <time>2022-04-06T13:04:30Z</time>
      </trkpt>
      <trkpt lat="48.93447" lon="-0.53273">
        <ele>143</ele>
        <time>2022-04-06T13:04:34Z</time>
      </trkpt>
      <trkpt lat="48.9349" lon="-0.5336">
        <ele>148</ele>
        <time>2022-04-06T13:04:51Z</time>
      </trkpt>
      <trkpt lat="48.93499" lon="-0.53368">
        <ele>149</ele>
        <time>2022-04-06T13:04:53Z</time>
      </trkpt>
      <trkpt lat="48.93507" lon="-0.53361">
        <ele>149</ele>
        <time>2022-04-06T13:04:55Z</time>
      </trkpt>
      <trkpt lat="48.9351" lon="-0.53344">
        <ele>149</ele>
        <time>2022-04-06T13:04:58Z</time>
      </trkpt>
      <trkpt lat="48.93506" lon="-0.5332">
        <ele>147</ele>
        <time>2022-04-06T13:05:02Z</time>
      </trkpt>
      <trkpt lat="48.93519" lon="-0.53305">
        <ele>148</ele>
        <time>2022-04-06T13:05:06Z</time>
      </trkpt>
      <trkpt lat="48.93567" lon="-0.53262">
        <ele>153</ele>
        <time>2022-04-06T13:05:19Z</time>
      </trkpt>
      <trkpt lat="48.93575" lon="-0.53295">
        <ele>154</ele>
        <time>2022-04-06T13:05:24Z</time>
      </trkpt>
      <trkpt lat="48.936" lon="-0.53372">
        <ele>158</ele>
        <time>2022-04-06T13:05:37Z</time>
      </trkpt>
      <trkpt lat="48.93644" lon="-0.53475">
        <ele>165</ele>
        <time>2022-04-06T13:05:56Z</time>
      </trkpt>
      <trkpt lat="48.9368" lon="-0.53552">
        <ele>169</ele>
        <time>2022-04-06T13:06:11Z</time>
      </trkpt>
      <trkpt lat="48.93718" lon="-0.536">
        <ele>171</ele>
        <time>2022-04-06T13:06:22Z</time>
      </trkpt>
      <trkpt lat="48.93762" lon="-0.53676">
        <ele>171</ele>
        <time>2022-04-06T13:06:38Z</time>
      </trkpt>
      <trkpt lat="48.93802" lon="-0.53756">
        <ele>169</ele>
        <time>2022-04-06T13:06:53Z</time>
      </trkpt>
      <trkpt lat="48.93841" lon="-0.53932">
        <ele>171</ele>
        <time>2022-04-06T13:07:22Z</time>
      </trkpt>
      <trkpt lat="48.93866" lon="-0.54023">
        <ele>173</ele>
        <time>2022-04-06T13:07:37Z</time>
      </trkpt>
      <trkpt lat="48.93875" lon="-0.54069">
        <ele>174</ele>
        <time>2022-04-06T13:07:44Z</time>
      </trkpt>
      <trkpt lat="48.93912" lon="-0.54197">
        <ele>175</ele>
        <time>2022-04-06T13:08:06Z</time>
      </trkpt>
      <trkpt lat="48.93933" lon="-0.54257">
        <ele>175</ele>
        <time>2022-04-06T13:08:16Z</time>
      </trkpt>
      <trkpt lat="48.9394" lon="-0.54265">
        <ele>175</ele>
        <time>2022-04-06T13:08:18Z</time>
      </trkpt>
      <trkpt lat="48.93949" lon="-0.54264">
        <ele>176</ele>
        <time>2022-04-06T13:08:20Z</time>
      </trkpt>
      <trkpt lat="48.93978" lon="-0.54204">
        <ele>177</ele>
        <time>2022-04-06T13:08:32Z</time>
      </trkpt>
      <trkpt lat="48.9403" lon="-0.54073">
        <ele>177</ele>
        <time>2022-04-06T13:08:55Z</time>
      </trkpt>
      <trkpt lat="48.94068" lon="-0.54035">
        <ele>177</ele>
        <time>2022-04-06T13:09:06Z</time>
      </trkpt>
      <trkpt lat="48.9419" lon="-0.53922">
        <ele>176</ele>
        <time>2022-04-06T13:09:39Z</time>
      </trkpt>
      <trkpt lat="48.94281" lon="-0.53843">
        <ele>174</ele>
        <time>2022-04-06T13:10:04Z</time>
      </trkpt>
      <trkpt lat="48.94306" lon="-0.53841">
        <ele>174</ele>
        <time>2022-04-06T13:10:09Z</time>
      </trkpt>
      <trkpt lat="48.94324" lon="-0.5385">
        <ele>174</ele>
        <time>2022-04-06T13:10:14Z</time>
      </trkpt>
      <trkpt lat="48.94329" lon="-0.53864">
        <ele>175</ele>
        <time>2022-04-06T13:10:16Z</time>
      </trkpt>
      <trkpt lat="48.94365" lon="-0.5415">
        <ele>185</ele>
        <time>2022-04-06T13:11:01Z</time>
      </trkpt>
      <trkpt lat="48.94386" lon="-0.54383">
        <ele>191</ele>
        <time>2022-04-06T13:11:37Z</time>
      </trkpt>
      <trkpt lat="48.94448" lon="-0.5469">
        <ele>192</ele>
        <time>2022-04-06T13:12:26Z</time>
      </trkpt>
      <trkpt lat="48.9445" lon="-0.5473">
        <ele>192</ele>
        <time>2022-04-06T13:12:32Z</time>
      </trkpt>
      <trkpt lat="48.94424" lon="-0.54993">
        <ele>196</ele>
        <time>2022-04-06T13:13:13Z</time>
      </trkpt>
      <trkpt lat="48.94374" lon="-0.55246">
        <ele>202</ele>
        <time>2022-04-06T13:13:54Z</time>
      </trkpt>
      <trkpt lat="48.94338" lon="-0.55401">
        <ele>206</ele>
        <time>2022-04-06T13:14:19Z</time>
      </trkpt>
      <trkpt lat="48.94325" lon="-0.5548">
        <ele>206</ele>
        <time>2022-04-06T13:14:31Z</time>
      </trkpt>
      <trkpt lat="48.94317" lon="-0.55553">
        <ele>206</ele>
        <time>2022-04-06T13:14:43Z</time>
      </trkpt>
      <trkpt lat="48.94318" lon="-0.55577">
        <ele>206</ele>
        <time>2022-04-06T13:14:46Z</time>
      </trkpt>
      <trkpt lat="48.94335" lon="-0.55596">
        <ele>208</ele>
        <time>2022-04-06T13:14:51Z</time>
      </trkpt>
      <trkpt lat="48.94389" lon="-0.55629">
        <ele>212</ele>
        <time>2022-04-06T13:15:05Z</time>
      </trkpt>
      <trkpt lat="48.94399" lon="-0.5562">
        <ele>213</ele>
        <time>2022-04-06T13:15:08Z</time>
      </trkpt>
      <trkpt lat="48.94425" lon="-0.55606">
        <ele>213</ele>
        <time>2022-04-06T13:15:14Z</time>
      </trkpt>
      <trkpt lat="48.94452" lon="-0.55596">
        <ele>215</ele>
        <time>2022-04-06T13:15:21Z</time>
      </trkpt>
      <trkpt lat="48.94542" lon="-0.55519">
        <ele>218</ele>
        <time>2022-04-06T13:15:45Z</time>
      </trkpt>
      <trkpt lat="48.94554" lon="-0.55543">
        <ele>220</ele>
        <time>2022-04-06T13:15:49Z</time>
      </trkpt>
      <trkpt lat="48.94568" lon="-0.55559">
        <ele>222</ele>
        <time>2022-04-06T13:15:53Z</time>
      </trkpt>
      <trkpt lat="48.94594" lon="-0.55565">
        <ele>224</ele>
        <time>2022-04-06T13:16:00Z</time>
      </trkpt>
      <trkpt lat="48.94625" lon="-0.55577">
        <ele>226</ele>
        <time>2022-04-06T13:16:07Z</time>
      </trkpt>
      <trkpt lat="48.94656" lon="-0.55598">
        <ele>228</ele>
        <time>2022-04-06T13:16:15Z</time>
      </trkpt>
      <trkpt lat="48.94711" lon="-0.55645">
        <ele>229</ele>
        <time>2022-04-06T13:16:30Z</time>
      </trkpt>
      <trkpt lat="48.94762" lon="-0.55676">
        <ele>231</ele>
        <time>2022-04-06T13:16:43Z</time>
      </trkpt>
      <trkpt lat="48.94823" lon="-0.55703">
        <ele>234</ele>
        <time>2022-04-06T13:16:57Z</time>
      </trkpt>
      <trkpt lat="48.94856" lon="-0.55723">
        <ele>234</ele>
        <time>2022-04-06T13:17:06Z</time>
      </trkpt>
      <trkpt lat="48.94913" lon="-0.5578">
        <ele>238</ele>
        <time>2022-04-06T13:17:22Z</time>
      </trkpt>
      <trkpt lat="48.94951" lon="-0.55838">
        <ele>243</ele>
        <time>2022-04-06T13:17:34Z</time>
      </trkpt>
      <trkpt lat="48.94977" lon="-0.55866">
        <ele>245</ele>
        <time>2022-04-06T13:17:42Z</time>
      </trkpt>
      <trkpt lat="48.94986" lon="-0.5587">
        <ele>245</ele>
        <time>2022-04-06T13:17:44Z</time>
      </trkpt>
      <trkpt lat="48.95022" lon="-0.55846">
        <ele>244</ele>
        <time>2022-04-06T13:17:53Z</time>
      </trkpt>
      <trkpt lat="48.9506" lon="-0.55827">
        <ele>246</ele>
        <time>2022-04-06T13:18:02Z</time>
      </trkpt>
      <trkpt lat="48.95101" lon="-0.55839">
        <ele>250</ele>
        <time>2022-04-06T13:18:12Z</time>
      </trkpt>
      <trkpt lat="48.95148" lon="-0.55866">
        <ele>254</ele>
        <time>2022-04-06T13:18:24Z</time>
      </trkpt>
      <trkpt lat="48.95224" lon="-0.55917">
        <ele>256</ele>
        <time>2022-04-06T13:18:43Z</time>
      </trkpt>
      <trkpt lat="48.95246" lon="-0.55948">
        <ele>256</ele>
        <time>2022-04-06T13:18:50Z</time>
      </trkpt>
      <trkpt lat="48.95303" lon="-0.56003">
        <ele>254</ele>
        <time>2022-04-06T13:19:06Z</time>
      </trkpt>
      <trkpt lat="48.95343" lon="-0.56031">
        <ele>252</ele>
        <time>2022-04-06T13:19:16Z</time>
      </trkpt>
      <trkpt lat="48.954" lon="-0.5604">
        <ele>248</ele>
        <time>2022-04-06T13:19:30Z</time>
      </trkpt>
      <trkpt lat="48.95501" lon="-0.56037">
        <ele>243</ele>
        <time>2022-04-06T13:19:53Z</time>
      </trkpt>
      <trkpt lat="48.95514" lon="-0.56055">
        <ele>242</ele>
        <time>2022-04-06T13:19:57Z</time>
      </trkpt>
      <trkpt lat="48.95523" lon="-0.56073">
        <ele>242</ele>
        <time>2022-04-06T13:20:01Z</time>
      </trkpt>
      <trkpt lat="48.95617" lon="-0.56387">
        <ele>239</ele>
        <time>2022-04-06T13:20:54Z</time>
      </trkpt>
      <trkpt lat="48.95627" lon="-0.56389">
        <ele>239</ele>
        <time>2022-04-06T13:20:56Z</time>
      </trkpt>
      <trkpt lat="48.95661" lon="-0.5635">
        <ele>237</ele>
        <time>2022-04-06T13:21:06Z</time>
      </trkpt>
      <trkpt lat="48.95702" lon="-0.56281">
        <ele>230</ele>
        <time>2022-04-06T13:21:20Z</time>
      </trkpt>
      <trkpt lat="48.95751" lon="-0.56209">
        <ele>218</ele>
        <time>2022-04-06T13:21:36Z</time>
      </trkpt>
      <trkpt lat="48.95795" lon="-0.56134">
        <ele>208</ele>
        <time>2022-04-06T13:21:52Z</time>
      </trkpt>
      <trkpt lat="48.95824" lon="-0.56048">
        <ele>198</ele>
        <time>2022-04-06T13:22:06Z</time>
      </trkpt>
      <trkpt lat="48.95857" lon="-0.55974">
        <ele>190</ele>
        <time>2022-04-06T13:22:20Z</time>
      </trkpt>
      <trkpt lat="48.95908" lon="-0.55881">
        <ele>179</ele>
        <time>2022-04-06T13:22:39Z</time>
      </trkpt>
      <trkpt lat="48.95918" lon="-0.55875">
        <ele>178</ele>
        <time>2022-04-06T13:22:41Z</time>
      </trkpt>
      <trkpt lat="48.95933" lon="-0.55881">
        <ele>180</ele>
        <time>2022-04-06T13:22:45Z</time>
      </trkpt>
      <trkpt lat="48.95945" lon="-0.5589">
        <ele>181</ele>
        <time>2022-04-06T13:22:48Z</time>
      </trkpt>
      <trkpt lat="48.95955" lon="-0.55902">
        <ele>182</ele>
        <time>2022-04-06T13:22:51Z</time>
      </trkpt>
      <trkpt lat="48.95969" lon="-0.55879">
        <ele>184</ele>
        <time>2022-04-06T13:22:56Z</time>
      </trkpt>
      <trkpt lat="48.95981" lon="-0.55873">
        <ele>185</ele>
        <time>2022-04-06T13:22:59Z</time>
      </trkpt>
      <trkpt lat="48.95998" lon="-0.55916">
        <ele>184</ele>
        <time>2022-04-06T13:23:06Z</time>
      </trkpt>
      <trkpt lat="48.96028" lon="-0.55973">
        <ele>187</ele>
        <time>2022-04-06T13:23:18Z</time>
      </trkpt>
      <trkpt lat="48.96055" lon="-0.56037">
        <ele>188</ele>
        <time>2022-04-06T13:23:29Z</time>
      </trkpt>
      <trkpt lat="48.96075" lon="-0.56104">
        <ele>187</ele>
        <time>2022-04-06T13:23:41Z</time>
      </trkpt>
      <trkpt lat="48.96107" lon="-0.56323">
        <ele>189</ele>
        <time>2022-04-06T13:24:15Z</time>
      </trkpt>
      <trkpt lat="48.96114" lon="-0.56397">
        <ele>192</ele>
        <time>2022-04-06T13:24:26Z</time>
      </trkpt>
      <trkpt lat="48.96128" lon="-0.56439">
        <ele>194</ele>
        <time>2022-04-06T13:24:34Z</time>
      </trkpt>
      <trkpt lat="48.9616" lon="-0.56501">
        <ele>194</ele>
        <time>2022-04-06T13:24:46Z</time>
      </trkpt>
      <trkpt lat="48.96224" lon="-0.567">
        <ele>199</ele>
        <time>2022-04-06T13:25:20Z</time>
      </trkpt>
      <trkpt lat="48.96289" lon="-0.56776">
        <ele>198</ele>
        <time>2022-04-06T13:25:39Z</time>
      </trkpt>
      <trkpt lat="48.96333" lon="-0.56833">
        <ele>197</ele>
        <time>2022-04-06T13:25:52Z</time>
      </trkpt>
      <trkpt lat="48.96342" lon="-0.56832">
        <ele>199</ele>
        <time>2022-04-06T13:25:54Z</time>
      </trkpt>
      <trkpt lat="48.9635" lon="-0.5681">
        <ele>202</ele>
        <time>2022-04-06T13:25:58Z</time>
      </trkpt>
      <trkpt lat="48.96372" lon="-0.56793">
        <ele>207</ele>
        <time>2022-04-06T13:26:04Z</time>
      </trkpt>
      <trkpt lat="48.96444" lon="-0.56753">
        <ele>219</ele>
        <time>2022-04-06T13:26:22Z</time>
      </trkpt>
      <trkpt lat="48.96466" lon="-0.56731">
        <ele>223</ele>
        <time>2022-04-06T13:26:28Z</time>
      </trkpt>
      <trkpt lat="48.96496" lon="-0.56675">
        <ele>229</ele>
        <time>2022-04-06T13:26:39Z</time>
      </trkpt>
      <trkpt lat="48.96527" lon="-0.56589">
        <ele>235</ele>
        <time>2022-04-06T13:26:54Z</time>
      </trkpt>
      <trkpt lat="48.96571" lon="-0.5651">
        <ele>242</ele>
        <time>2022-04-06T13:27:10Z</time>
      </trkpt>
      <trkpt lat="48.96624" lon="-0.56431">
        <ele>248</ele>
        <time>2022-04-06T13:27:27Z</time>
      </trkpt>
      <trkpt lat="48.96696" lon="-0.56317">
        <ele>253</ele>
        <time>2022-04-06T13:27:52Z</time>
      </trkpt>
      <trkpt lat="48.96713" lon="-0.56307">
        <ele>254</ele>
        <time>2022-04-06T13:27:56Z</time>
      </trkpt>
      <trkpt lat="48.96795" lon="-0.56294">
        <ele>264</ele>
        <time>2022-04-06T13:28:15Z</time>
      </trkpt>
      <trkpt lat="48.96813" lon="-0.5628">
        <ele>265</ele>
        <time>2022-04-06T13:28:20Z</time>
      </trkpt>
      <trkpt lat="48.96835" lon="-0.5624">
        <ele>265</ele>
        <time>2022-04-06T13:28:28Z</time>
      </trkpt>
      <trkpt lat="48.9685" lon="-0.56189">
        <ele>266</ele>
        <time>2022-04-06T13:28:36Z</time>
      </trkpt>
      <trkpt lat="48.96861" lon="-0.56183">
        <ele>267</ele>
        <time>2022-04-06T13:28:39Z</time>
      </trkpt>
      <trkpt lat="48.96888" lon="-0.56193">
        <ele>269</ele>
        <time>2022-04-06T13:28:46Z</time>
      </trkpt>
      <trkpt lat="48.96916" lon="-0.56213">
        <ele>272</ele>
        <time>2022-04-06T13:28:53Z</time>
      </trkpt>
      <trkpt lat="48.96937" lon="-0.56234">
        <ele>271</ele>
        <time>2022-04-06T13:28:59Z</time>
      </trkpt>
      <trkpt lat="48.96944" lon="-0.56237">
        <ele>271</ele>
        <time>2022-04-06T13:29:00Z</time>
      </trkpt>
      <trkpt lat="48.96949" lon="-0.56225">
        <ele>270</ele>
        <time>2022-04-06T13:29:03Z</time>
      </trkpt>
      <trkpt lat="48.96943" lon="-0.56178">
        <ele>268</ele>
        <time>2022-04-06T13:29:10Z</time>
      </trkpt>
      <trkpt lat="48.96948" lon="-0.56049">
        <ele>270</ele>
        <time>2022-04-06T13:29:30Z</time>
      </trkpt>
      <trkpt lat="48.96957" lon="-0.55992">
        <ele>271</ele>
        <time>2022-04-06T13:29:39Z</time>
      </trkpt>
      <trkpt lat="48.96957" lon="-0.55864">
        <ele>268</ele>
        <time>2022-04-06T13:29:58Z</time>
      </trkpt>
      <trkpt lat="48.96951" lon="-0.55815">
        <ele>267</ele>
        <time>2022-04-06T13:30:06Z</time>
      </trkpt>
      <trkpt lat="48.96902" lon="-0.55659">
        <ele>266</ele>
        <time>2022-04-06T13:30:33Z</time>
      </trkpt>
      <trkpt lat="48.96899" lon="-0.55611">
        <ele>264</ele>
        <time>2022-04-06T13:30:40Z</time>
      </trkpt>
      <trkpt lat="48.96901" lon="-0.55568">
        <ele>262</ele>
        <time>2022-04-06T13:30:47Z</time>
      </trkpt>
      <trkpt lat="48.96931" lon="-0.55435">
        <ele>259</ele>
        <time>2022-04-06T13:31:08Z</time>
      </trkpt>
      <trkpt lat="48.96933" lon="-0.55382">
        <ele>259</ele>
        <time>2022-04-06T13:31:16Z</time>
      </trkpt>
      <trkpt lat="48.96923" lon="-0.55276">
        <ele>260</ele>
        <time>2022-04-06T13:31:33Z</time>
      </trkpt>
      <trkpt lat="48.96889" lon="-0.55153">
        <ele>260</ele>
        <time>2022-04-06T13:31:53Z</time>
      </trkpt>
      <trkpt lat="48.9688" lon="-0.55092">
        <ele>259</ele>
        <time>2022-04-06T13:32:03Z</time>
      </trkpt>
      <trkpt lat="48.96873" lon="-0.54901">
        <ele>256</ele>
        <time>2022-04-06T13:32:32Z</time>
      </trkpt>
      <trkpt lat="48.96863" lon="-0.54775">
        <ele>257</ele>
        <time>2022-04-06T13:32:51Z</time>
      </trkpt>
      <trkpt lat="48.96851" lon="-0.54705">
        <ele>257</ele>
        <time>2022-04-06T13:33:03Z</time>
      </trkpt>
      <trkpt lat="48.96836" lon="-0.54636">
        <ele>258</ele>
        <time>2022-04-06T13:33:14Z</time>
      </trkpt>
      <trkpt lat="48.96816" lon="-0.54587">
        <ele>257</ele>
        <time>2022-04-06T13:33:23Z</time>
      </trkpt>
      <trkpt lat="48.96789" lon="-0.54537">
        <ele>254</ele>
        <time>2022-04-06T13:33:32Z</time>
      </trkpt>
      <trkpt lat="48.96779" lon="-0.54501">
        <ele>253</ele>
        <time>2022-04-06T13:33:38Z</time>
      </trkpt>
      <trkpt lat="48.96765" lon="-0.54471">
        <ele>252</ele>
        <time>2022-04-06T13:33:44Z</time>
      </trkpt>
      <trkpt lat="48.96697" lon="-0.54358">
        <ele>249</ele>
        <time>2022-04-06T13:34:08Z</time>
      </trkpt>
      <trkpt lat="48.96673" lon="-0.54299">
        <ele>249</ele>
        <time>2022-04-06T13:34:18Z</time>
      </trkpt>
      <trkpt lat="48.96665" lon="-0.54247">
        <ele>249</ele>
        <time>2022-04-06T13:34:26Z</time>
      </trkpt>
      <trkpt lat="48.96636" lon="-0.54132">
        <ele>241</ele>
        <time>2022-04-06T13:34:45Z</time>
      </trkpt>
      <trkpt lat="48.96627" lon="-0.54081">
        <ele>238</ele>
        <time>2022-04-06T13:34:53Z</time>
      </trkpt>
      <trkpt lat="48.96624" lon="-0.54026">
        <ele>238</ele>
        <time>2022-04-06T13:35:02Z</time>
      </trkpt>
      <trkpt lat="48.96632" lon="-0.53936">
        <ele>234</ele>
        <time>2022-04-06T13:35:16Z</time>
      </trkpt>
      <trkpt lat="48.96632" lon="-0.53896">
        <ele>232</ele>
        <time>2022-04-06T13:35:22Z</time>
      </trkpt>
      <trkpt lat="48.96641" lon="-0.53856">
        <ele>231</ele>
        <time>2022-04-06T13:35:28Z</time>
      </trkpt>
      <trkpt lat="48.96633" lon="-0.53808">
        <ele>229</ele>
        <time>2022-04-06T13:35:36Z</time>
      </trkpt>
      <trkpt lat="48.96618" lon="-0.53752">
        <ele>227</ele>
        <time>2022-04-06T13:35:45Z</time>
      </trkpt>
      <trkpt lat="48.96617" lon="-0.53701">
        <ele>229</ele>
        <time>2022-04-06T13:35:53Z</time>
      </trkpt>
      <trkpt lat="48.9662" lon="-0.53639">
        <ele>230</ele>
        <time>2022-04-06T13:36:03Z</time>
      </trkpt>
      <trkpt lat="48.96625" lon="-0.53591">
        <ele>229</ele>
        <time>2022-04-06T13:36:10Z</time>
      </trkpt>
      <trkpt lat="48.96607" lon="-0.53537">
        <ele>228</ele>
        <time>2022-04-06T13:36:19Z</time>
      </trkpt>
      <trkpt lat="48.96571" lon="-0.53467">
        <ele>227</ele>
        <time>2022-04-06T13:36:33Z</time>
      </trkpt>
      <trkpt lat="48.96547" lon="-0.53412">
        <ele>224</ele>
        <time>2022-04-06T13:36:43Z</time>
      </trkpt>
      <trkpt lat="48.96524" lon="-0.53351">
        <ele>219</ele>
        <time>2022-04-06T13:36:54Z</time>
      </trkpt>
      <trkpt lat="48.96509" lon="-0.53324">
        <ele>217</ele>
        <time>2022-04-06T13:36:59Z</time>
      </trkpt>
      <trkpt lat="48.96479" lon="-0.53306">
        <ele>215</ele>
        <time>2022-04-06T13:37:07Z</time>
      </trkpt>
      <trkpt lat="48.96463" lon="-0.53286">
        <ele>215</ele>
        <time>2022-04-06T13:37:12Z</time>
      </trkpt>
      <trkpt lat="48.96452" lon="-0.53226">
        <ele>213</ele>
        <time>2022-04-06T13:37:21Z</time>
      </trkpt>
      <trkpt lat="48.96456" lon="-0.53169">
        <ele>211</ele>
        <time>2022-04-06T13:37:30Z</time>
      </trkpt>
      <trkpt lat="48.96454" lon="-0.53093">
        <ele>207</ele>
        <time>2022-04-06T13:37:42Z</time>
      </trkpt>
      <trkpt lat="48.96448" lon="-0.53027">
        <ele>202</ele>
        <time>2022-04-06T13:37:52Z</time>
      </trkpt>
      <trkpt lat="48.96457" lon="-0.52975">
        <ele>200</ele>
        <time>2022-04-06T13:38:00Z</time>
      </trkpt>
      <trkpt lat="48.96473" lon="-0.52922">
        <ele>198</ele>
        <time>2022-04-06T13:38:09Z</time>
      </trkpt>
      <trkpt lat="48.96514" lon="-0.52833">
        <ele>195</ele>
        <time>2022-04-06T13:38:26Z</time>
      </trkpt>
      <trkpt lat="48.96532" lon="-0.52788">
        <ele>193</ele>
        <time>2022-04-06T13:38:34Z</time>
      </trkpt>
      <trkpt lat="48.96555" lon="-0.52612">
        <ele>180</ele>
        <time>2022-04-06T13:39:01Z</time>
      </trkpt>
      <trkpt lat="48.9658" lon="-0.5254">
        <ele>175</ele>
        <time>2022-04-06T13:39:14Z</time>
      </trkpt>
      <trkpt lat="48.96605" lon="-0.52485">
        <ele>168</ele>
        <time>2022-04-06T13:39:24Z</time>
      </trkpt>
      <trkpt lat="48.9665" lon="-0.52354">
        <ele>158</ele>
        <time>2022-04-06T13:39:47Z</time>
      </trkpt>
      <trkpt lat="48.96686" lon="-0.5231">
        <ele>156</ele>
        <time>2022-04-06T13:39:58Z</time>
      </trkpt>
      <trkpt lat="48.96719" lon="-0.52275">
        <ele>156</ele>
        <time>2022-04-06T13:40:07Z</time>
      </trkpt>
      <trkpt lat="48.96774" lon="-0.52245">
        <ele>156</ele>
        <time>2022-04-06T13:40:21Z</time>
      </trkpt>
      <trkpt lat="48.96817" lon="-0.52203">
        <ele>157</ele>
        <time>2022-04-06T13:40:33Z</time>
      </trkpt>
      <trkpt lat="48.96878" lon="-0.52129">
        <ele>158</ele>
        <time>2022-04-06T13:40:51Z</time>
      </trkpt>
      <trkpt lat="48.96933" lon="-0.52092">
        <ele>161</ele>
        <time>2022-04-06T13:41:05Z</time>
      </trkpt>
      <trkpt lat="48.96984" lon="-0.52046">
        <ele>162</ele>
        <time>2022-04-06T13:41:19Z</time>
      </trkpt>
      <trkpt lat="48.97028" lon="-0.52014">
        <ele>163</ele>
        <time>2022-04-06T13:41:30Z</time>
      </trkpt>
      <trkpt lat="48.97083" lon="-0.51985">
        <ele>167</ele>
        <time>2022-04-06T13:41:44Z</time>
      </trkpt>
      <trkpt lat="48.97118" lon="-0.51946">
        <ele>174</ele>
        <time>2022-04-06T13:41:54Z</time>
      </trkpt>
      <trkpt lat="48.97144" lon="-0.51899">
        <ele>181</ele>
        <time>2022-04-06T13:42:03Z</time>
      </trkpt>
      <trkpt lat="48.97151" lon="-0.51862">
        <ele>183</ele>
        <time>2022-04-06T13:42:09Z</time>
      </trkpt>
      <trkpt lat="48.97151" lon="-0.51812">
        <ele>185</ele>
        <time>2022-04-06T13:42:17Z</time>
      </trkpt>
      <trkpt lat="48.97122" lon="-0.51744">
        <ele>182</ele>
        <time>2022-04-06T13:42:29Z</time>
      </trkpt>
      <trkpt lat="48.97086" lon="-0.5168">
        <ele>183</ele>
        <time>2022-04-06T13:42:42Z</time>
      </trkpt>
      <trkpt lat="48.97041" lon="-0.51614">
        <ele>184</ele>
        <time>2022-04-06T13:42:57Z</time>
      </trkpt>
      <trkpt lat="48.96986" lon="-0.51552">
        <ele>182</ele>
        <time>2022-04-06T13:43:13Z</time>
      </trkpt>
      <trkpt lat="48.96924" lon="-0.5146">
        <ele>186</ele>
        <time>2022-04-06T13:43:33Z</time>
      </trkpt>
      <trkpt lat="48.96876" lon="-0.51323">
        <ele>193</ele>
        <time>2022-04-06T13:43:57Z</time>
      </trkpt>
      <trkpt lat="48.96832" lon="-0.513">
        <ele>192</ele>
        <time>2022-04-06T13:44:08Z</time>
      </trkpt>
      <trkpt lat="48.9682" lon="-0.51286">
        <ele>191</ele>
        <time>2022-04-06T13:44:11Z</time>
      </trkpt>
      <trkpt lat="48.96771" lon="-0.51262">
        <ele>191</ele>
        <time>2022-04-06T13:44:23Z</time>
      </trkpt>
      <trkpt lat="48.96774" lon="-0.51253">
        <ele>191</ele>
        <time>2022-04-06T13:44:25Z</time>
      </trkpt>
      <trkpt lat="48.96802" lon="-0.51274">
        <ele>191</ele>
        <time>2022-04-06T13:44:32Z</time>
      </trkpt>
      <trkpt lat="48.96813" lon="-0.51278">
        <ele>191</ele>
        <time>2022-04-06T13:44:35Z</time>
      </trkpt>
      <trkpt lat="48.9684" lon="-0.51127">
        <ele>167</ele>
        <time>2022-04-06T13:44:59Z</time>
      </trkpt>
      <trkpt lat="48.96868" lon="-0.51061">
        <ele>153</ele>
        <time>2022-04-06T13:45:11Z</time>
      </trkpt>
      <trkpt lat="48.96949" lon="-0.50835">
        <ele>128</ele>
        <time>2022-04-06T13:45:50Z</time>
      </trkpt>
      <trkpt lat="48.96959" lon="-0.50815">
        <ele>127</ele>
        <time>2022-04-06T13:45:54Z</time>
      </trkpt>
      <trkpt lat="48.97028" lon="-0.50747">
        <ele>128</ele>
        <time>2022-04-06T13:46:13Z</time>
      </trkpt>
      <trkpt lat="48.97044" lon="-0.50728">
        <ele>128</ele>
        <time>2022-04-06T13:46:18Z</time>
      </trkpt>
      <trkpt lat="48.97022" lon="-0.50704">
        <ele>123</ele>
        <time>2022-04-06T13:46:24Z</time>
      </trkpt>
      <trkpt lat="48.9715" lon="-0.50518">
        <ele>120</ele>
        <time>2022-04-06T13:47:05Z</time>
      </trkpt>
      <trkpt lat="48.97204" lon="-0.50423">
        <ele>116</ele>
        <time>2022-04-06T13:47:25Z</time>
      </trkpt>
      <trkpt lat="48.97313" lon="-0.5025">
        <ele>108</ele>
        <time>2022-04-06T13:48:02Z</time>
      </trkpt>
      <trkpt lat="48.97326" lon="-0.50237">
        <ele>108</ele>
        <time>2022-04-06T13:48:05Z</time>
      </trkpt>
      <trkpt lat="48.97347" lon="-0.50259">
        <ele>112</ele>
        <time>2022-04-06T13:48:11Z</time>
      </trkpt>
      <trkpt lat="48.97362" lon="-0.50267">
        <ele>114</ele>
        <time>2022-04-06T13:48:15Z</time>
      </trkpt>
      <trkpt lat="48.97377" lon="-0.50261">
        <ele>115</ele>
        <time>2022-04-06T13:48:18Z</time>
      </trkpt>
      <trkpt lat="48.97384" lon="-0.50245">
        <ele>115</ele>
        <time>2022-04-06T13:48:21Z</time>
      </trkpt>
      <trkpt lat="48.97391" lon="-0.50193">
        <ele>112</ele>
        <time>2022-04-06T13:48:30Z</time>
      </trkpt>
      <trkpt lat="48.97393" lon="-0.50157">
        <ele>111</ele>
        <time>2022-04-06T13:48:35Z</time>
      </trkpt>
      <trkpt lat="48.974" lon="-0.50149">
        <ele>112</ele>
        <time>2022-04-06T13:48:37Z</time>
      </trkpt>
      <trkpt lat="48.97432" lon="-0.50199">
        <ele>118</ele>
        <time>2022-04-06T13:48:48Z</time>
      </trkpt>
      <trkpt lat="48.97583" lon="-0.50285">
        <ele>135</ele>
        <time>2022-04-06T13:49:25Z</time>
      </trkpt>
      <trkpt lat="48.97633" lon="-0.50316">
        <ele>137</ele>
        <time>2022-04-06T13:49:38Z</time>
      </trkpt>
      <trkpt lat="48.97748" lon="-0.50352">
        <ele>132</ele>
        <time>2022-04-06T13:50:05Z</time>
      </trkpt>
      <trkpt lat="48.97818" lon="-0.50368">
        <ele>127</ele>
        <time>2022-04-06T13:50:22Z</time>
      </trkpt>
      <trkpt lat="48.97853" lon="-0.5038">
        <ele>124</ele>
        <time>2022-04-06T13:50:30Z</time>
      </trkpt>
      <trkpt lat="48.97875" lon="-0.50378">
        <ele>123</ele>
        <time>2022-04-06T13:50:36Z</time>
      </trkpt>
      <trkpt lat="48.97935" lon="-0.5038">
        <ele>119</ele>
        <time>2022-04-06T13:50:50Z</time>
      </trkpt>
      <trkpt lat="48.97962" lon="-0.50388">
        <ele>118</ele>
        <time>2022-04-06T13:50:56Z</time>
      </trkpt>
      <trkpt lat="48.97973" lon="-0.50388">
        <ele>118</ele>
        <time>2022-04-06T13:50:59Z</time>
      </trkpt>
      <trkpt lat="48.9798" lon="-0.503">
        <ele>119</ele>
        <time>2022-04-06T13:51:12Z</time>
      </trkpt>
      <trkpt lat="48.98008" lon="-0.50243">
        <ele>120</ele>
        <time>2022-04-06T13:51:23Z</time>
      </trkpt>
      <trkpt lat="48.98046" lon="-0.50132">
        <ele>122</ele>
        <time>2022-04-06T13:51:42Z</time>
      </trkpt>
      <trkpt lat="48.98083" lon="-0.49998">
        <ele>122</ele>
        <time>2022-04-06T13:52:05Z</time>
      </trkpt>
      <trkpt lat="48.98129" lon="-0.49867">
        <ele>123</ele>
        <time>2022-04-06T13:52:27Z</time>
      </trkpt>
      <trkpt lat="48.98193" lon="-0.4964">
        <ele>129</ele>
        <time>2022-04-06T13:53:05Z</time>
      </trkpt>
      <trkpt lat="48.98258" lon="-0.49453">
        <ele>132</ele>
        <time>2022-04-06T13:53:38Z</time>
      </trkpt>
      <trkpt lat="48.98281" lon="-0.49407">
        <ele>133</ele>
        <time>2022-04-06T13:53:46Z</time>
      </trkpt>
      <trkpt lat="48.98329" lon="-0.49349">
        <ele>135</ele>
        <time>2022-04-06T13:54:01Z</time>
      </trkpt>
      <trkpt lat="48.98396" lon="-0.49223">
        <ele>134</ele>
        <time>2022-04-06T13:54:26Z</time>
      </trkpt>
      <trkpt lat="48.98434" lon="-0.49171">
        <ele>132</ele>
        <time>2022-04-06T13:54:38Z</time>
      </trkpt>
      <trkpt lat="48.98473" lon="-0.4912">
        <ele>128</ele>
        <time>2022-04-06T13:54:50Z</time>
      </trkpt>
      <trkpt lat="48.98514" lon="-0.49081">
        <ele>125</ele>
        <time>2022-04-06T13:55:01Z</time>
      </trkpt>
      <trkpt lat="48.98561" lon="-0.49045">
        <ele>119</ele>
        <time>2022-04-06T13:55:13Z</time>
      </trkpt>
      <trkpt lat="48.9858" lon="-0.49019">
        <ele>117</ele>
        <time>2022-04-06T13:55:19Z</time>
      </trkpt>
      <trkpt lat="48.98663" lon="-0.48844">
        <ele>94</ele>
        <time>2022-04-06T13:55:52Z</time>
      </trkpt>
      <trkpt lat="48.98678" lon="-0.48831">
        <ele>92</ele>
        <time>2022-04-06T13:55:56Z</time>
      </trkpt>
      <trkpt lat="48.98698" lon="-0.48824">
        <ele>90</ele>
        <time>2022-04-06T13:56:01Z</time>
      </trkpt>
      <trkpt lat="48.98721" lon="-0.48823">
        <ele>88</ele>
        <time>2022-04-06T13:56:06Z</time>
      </trkpt>
      <trkpt lat="48.98741" lon="-0.48829">
        <ele>87</ele>
        <time>2022-04-06T13:56:11Z</time>
      </trkpt>
      <trkpt lat="48.98753" lon="-0.48824">
        <ele>85</ele>
        <time>2022-04-06T13:56:14Z</time>
      </trkpt>
      <trkpt lat="48.9876" lon="-0.48793">
        <ele>81</ele>
        <time>2022-04-06T13:56:19Z</time>
      </trkpt>
      <trkpt lat="48.98774" lon="-0.48763">
        <ele>75</ele>
        <time>2022-04-06T13:56:25Z</time>
      </trkpt>
      <trkpt lat="48.98815" lon="-0.48709">
        <ele>66</ele>
        <time>2022-04-06T13:56:37Z</time>
      </trkpt>
      <trkpt lat="48.98831" lon="-0.48675">
        <ele>63</ele>
        <time>2022-04-06T13:56:44Z</time>
      </trkpt>
      <trkpt lat="48.98844" lon="-0.48619">
        <ele>60</ele>
        <time>2022-04-06T13:56:53Z</time>
      </trkpt>
      <trkpt lat="48.9886" lon="-0.48574">
        <ele>56</ele>
        <time>2022-04-06T13:57:01Z</time>
      </trkpt>
      <trkpt lat="48.98885" lon="-0.48546">
        <ele>52</ele>
        <time>2022-04-06T13:57:08Z</time>
      </trkpt>
      <trkpt lat="48.99028" lon="-0.48429">
        <ele>35</ele>
        <time>2022-04-06T13:57:46Z</time>
      </trkpt>
      <trkpt lat="48.99056" lon="-0.48407">
        <ele>32</ele>
        <time>2022-04-06T13:57:53Z</time>
      </trkpt>
      <trkpt lat="48.99084" lon="-0.48389">
        <ele>29</ele>
        <time>2022-04-06T13:58:00Z</time>
      </trkpt>
      <trkpt lat="48.9913" lon="-0.48389">
        <ele>27</ele>
        <time>2022-04-06T13:58:11Z</time>
      </trkpt>
      <trkpt lat="48.99142" lon="-0.48396">
        <ele>26</ele>
        <time>2022-04-06T13:58:14Z</time>
      </trkpt>
      <trkpt lat="48.99181" lon="-0.48481">
        <ele>27</ele>
        <time>2022-04-06T13:58:30Z</time>
      </trkpt>
      <trkpt lat="48.99215" lon="-0.48521">
        <ele>25</ele>
        <time>2022-04-06T13:58:40Z</time>
      </trkpt>
      <trkpt lat="48.99263" lon="-0.48548">
        <ele>24</ele>
        <time>2022-04-06T13:58:52Z</time>
      </trkpt>
      <trkpt lat="48.99302" lon="-0.48566">
        <ele>27</ele>
        <time>2022-04-06T13:59:01Z</time>
      </trkpt>
      <trkpt lat="48.99343" lon="-0.48578">
        <ele>31</ele>
        <time>2022-04-06T13:59:11Z</time>
      </trkpt>
      <trkpt lat="48.99397" lon="-0.48598">
        <ele>37</ele>
        <time>2022-04-06T13:59:24Z</time>
      </trkpt>
      <trkpt lat="48.99427" lon="-0.48616">
        <ele>37</ele>
        <time>2022-04-06T13:59:32Z</time>
      </trkpt>
      <trkpt lat="48.99446" lon="-0.48634">
        <ele>34</ele>
        <time>2022-04-06T13:59:37Z</time>
      </trkpt>
      <trkpt lat="48.99473" lon="-0.48698">
        <ele>31</ele>
        <time>2022-04-06T13:59:49Z</time>
      </trkpt>
      <trkpt lat="48.99488" lon="-0.48716">
        <ele>29</ele>
        <time>2022-04-06T13:59:53Z</time>
      </trkpt>
      <trkpt lat="48.99504" lon="-0.48719">
        <ele>28</ele>
        <time>2022-04-06T13:59:57Z</time>
      </trkpt>
      <trkpt lat="48.9955" lon="-0.48685">
        <ele>26</ele>
        <time>2022-04-06T14:00:09Z</time>
      </trkpt>
      <trkpt lat="48.99582" lon="-0.48667">
        <ele>25</ele>
        <time>2022-04-06T14:00:17Z</time>
      </trkpt>
      <trkpt lat="48.99607" lon="-0.48646">
        <ele>29</ele>
        <time>2022-04-06T14:00:23Z</time>
      </trkpt>
      <trkpt lat="48.99616" lon="-0.48618">
        <ele>31</ele>
        <time>2022-04-06T14:00:28Z</time>
      </trkpt>
      <trkpt lat="48.99669" lon="-0.48501">
        <ele>36</ele>
        <time>2022-04-06T14:00:50Z</time>
      </trkpt>
      <trkpt lat="48.99694" lon="-0.48431">
        <ele>38</ele>
        <time>2022-04-06T14:01:02Z</time>
      </trkpt>
      <trkpt lat="48.99724" lon="-0.48379">
        <ele>40</ele>
        <time>2022-04-06T14:01:13Z</time>
      </trkpt>
      <trkpt lat="48.99772" lon="-0.4831">
        <ele>46</ele>
        <time>2022-04-06T14:01:28Z</time>
      </trkpt>
      <trkpt lat="48.99844" lon="-0.48184">
        <ele>55</ele>
        <time>2022-04-06T14:01:54Z</time>
      </trkpt>
      <trkpt lat="48.99876" lon="-0.48106">
        <ele>57</ele>
        <time>2022-04-06T14:02:08Z</time>
      </trkpt>
      <trkpt lat="48.99912" lon="-0.47926">
        <ele>58</ele>
        <time>2022-04-06T14:02:37Z</time>
      </trkpt>
      <trkpt lat="48.99925" lon="-0.4788">
        <ele>57</ele>
        <time>2022-04-06T14:02:44Z</time>
      </trkpt>
      <trkpt lat="48.99944" lon="-0.47847">
        <ele>58</ele>
        <time>2022-04-06T14:02:51Z</time>
      </trkpt>
      <trkpt lat="48.99972" lon="-0.4782">
        <ele>61</ele>
        <time>2022-04-06T14:02:59Z</time>
      </trkpt>
      <trkpt lat="49.00003" lon="-0.47795">
        <ele>65</ele>
        <time>2022-04-06T14:03:07Z</time>
      </trkpt>
      <trkpt lat="49.00036" lon="-0.47773">
        <ele>69</ele>
        <time>2022-04-06T14:03:15Z</time>
      </trkpt>
      <trkpt lat="49.00063" lon="-0.47678">
        <ele>61</ele>
        <time>2022-04-06T14:03:31Z</time>
      </trkpt>
      <trkpt lat="49.00152" lon="-0.47414">
        <ele>50</ele>
        <time>2022-04-06T14:04:17Z</time>
      </trkpt>
      <trkpt lat="49.00248" lon="-0.47113">
        <ele>45</ele>
        <time>2022-04-06T14:05:08Z</time>
      </trkpt>
      <trkpt lat="49.00276" lon="-0.47095">
        <ele>44</ele>
        <time>2022-04-06T14:05:15Z</time>
      </trkpt>
      <trkpt lat="49.004" lon="-0.47026">
        <ele>42</ele>
        <time>2022-04-06T14:05:46Z</time>
      </trkpt>
      <trkpt lat="49.00456" lon="-0.4699">
        <ele>39</ele>
        <time>2022-04-06T14:06:00Z</time>
      </trkpt>
      <trkpt lat="49.0048" lon="-0.4698">
        <ele>37</ele>
        <time>2022-04-06T14:06:06Z</time>
      </trkpt>
      <trkpt lat="49.00508" lon="-0.4698">
        <ele>35</ele>
        <time>2022-04-06T14:06:13Z</time>
      </trkpt>
      <trkpt lat="49.00559" lon="-0.47004">
        <ele>32</ele>
        <time>2022-04-06T14:06:25Z</time>
      </trkpt>
      <trkpt lat="49.0061" lon="-0.47034">
        <ele>30</ele>
        <time>2022-04-06T14:06:38Z</time>
      </trkpt>
      <trkpt lat="49.00649" lon="-0.47081">
        <ele>29</ele>
        <time>2022-04-06T14:06:49Z</time>
      </trkpt>
      <trkpt lat="49.00666" lon="-0.47118">
        <ele>33</ele>
        <time>2022-04-06T14:06:56Z</time>
      </trkpt>
      <trkpt lat="49.00687" lon="-0.4715">
        <ele>36</ele>
        <time>2022-04-06T14:07:03Z</time>
      </trkpt>
      <trkpt lat="49.00765" lon="-0.47222">
        <ele>40</ele>
        <time>2022-04-06T14:07:24Z</time>
      </trkpt>
      <trkpt lat="49.00807" lon="-0.47247">
        <ele>39</ele>
        <time>2022-04-06T14:07:35Z</time>
      </trkpt>
      <trkpt lat="49.00856" lon="-0.47265">
        <ele>36</ele>
        <time>2022-04-06T14:07:47Z</time>
      </trkpt>
      <trkpt lat="49.00897" lon="-0.47297">
        <ele>37</ele>
        <time>2022-04-06T14:07:58Z</time>
      </trkpt>
      <trkpt lat="49.00916" lon="-0.47323">
        <ele>39</ele>
        <time>2022-04-06T14:08:04Z</time>
      </trkpt>
      <trkpt lat="49.0107" lon="-0.47433">
        <ele>34</ele>
        <time>2022-04-06T14:08:43Z</time>
      </trkpt>
      <trkpt lat="49.01115" lon="-0.47455">
        <ele>34</ele>
        <time>2022-04-06T14:08:54Z</time>
      </trkpt>
      <trkpt lat="49.01211" lon="-0.4749">
        <ele>29</ele>
        <time>2022-04-06T14:09:17Z</time>
      </trkpt>
      <trkpt lat="49.01255" lon="-0.47518">
        <ele>27</ele>
        <time>2022-04-06T14:09:28Z</time>
      </trkpt>
      <trkpt lat="49.01266" lon="-0.47518">
        <ele>30</ele>
        <time>2022-04-06T14:09:31Z</time>
      </trkpt>
      <trkpt lat="49.0132" lon="-0.47493">
        <ele>38</ele>
        <time>2022-04-06T14:09:44Z</time>
      </trkpt>
      <trkpt lat="49.01356" lon="-0.47462">
        <ele>40</ele>
        <time>2022-04-06T14:09:54Z</time>
      </trkpt>
      <trkpt lat="49.01376" lon="-0.47456">
        <ele>44</ele>
        <time>2022-04-06T14:09:59Z</time>
      </trkpt>
      <trkpt lat="49.01397" lon="-0.47444">
        <ele>45</ele>
        <time>2022-04-06T14:10:04Z</time>
      </trkpt>
      <trkpt lat="49.01426" lon="-0.47417">
        <ele>43</ele>
        <time>2022-04-06T14:10:12Z</time>
      </trkpt>
      <trkpt lat="49.01464" lon="-0.47326">
        <ele>38</ele>
        <time>2022-04-06T14:10:28Z</time>
      </trkpt>
      <trkpt lat="49.01496" lon="-0.47274">
        <ele>35</ele>
        <time>2022-04-06T14:10:39Z</time>
      </trkpt>
      <trkpt lat="49.01548" lon="-0.47201">
        <ele>36</ele>
        <time>2022-04-06T14:10:56Z</time>
      </trkpt>
      <trkpt lat="49.01611" lon="-0.47119">
        <ele>33</ele>
        <time>2022-04-06T14:11:15Z</time>
      </trkpt>
      <trkpt lat="49.0165" lon="-0.4708">
        <ele>31</ele>
        <time>2022-04-06T14:11:26Z</time>
      </trkpt>
      <trkpt lat="49.01712" lon="-0.46988">
        <ele>23</ele>
        <time>2022-04-06T14:11:46Z</time>
      </trkpt>
      <trkpt lat="49.01735" lon="-0.46967">
        <ele>22</ele>
        <time>2022-04-06T14:11:52Z</time>
      </trkpt>
      <trkpt lat="49.01768" lon="-0.4694">
        <ele>21</ele>
        <time>2022-04-06T14:12:01Z</time>
      </trkpt>
      <trkpt lat="49.01795" lon="-0.46927">
        <ele>22</ele>
        <time>2022-04-06T14:12:08Z</time>
      </trkpt>
      <trkpt lat="49.01833" lon="-0.4692">
        <ele>23</ele>
        <time>2022-04-06T14:12:17Z</time>
      </trkpt>
      <trkpt lat="49.01866" lon="-0.46936">
        <ele>30</ele>
        <time>2022-04-06T14:12:25Z</time>
      </trkpt>
      <trkpt lat="49.01885" lon="-0.46956">
        <ele>35</ele>
        <time>2022-04-06T14:12:30Z</time>
      </trkpt>
      <trkpt lat="49.01894" lon="-0.46955">
        <ele>36</ele>
        <time>2022-04-06T14:12:32Z</time>
      </trkpt>
      <trkpt lat="49.01914" lon="-0.46911">
        <ele>34</ele>
        <time>2022-04-06T14:12:41Z</time>
      </trkpt>
      <trkpt lat="49.01984" lon="-0.46871">
        <ele>38</ele>
        <time>2022-04-06T14:12:58Z</time>
      </trkpt>
      <trkpt lat="49.0201" lon="-0.46852">
        <ele>38</ele>
        <time>2022-04-06T14:13:05Z</time>
      </trkpt>
      <trkpt lat="49.02053" lon="-0.46807">
        <ele>36</ele>
        <time>2022-04-06T14:13:17Z</time>
      </trkpt>
      <trkpt lat="49.02098" lon="-0.46776">
        <ele>36</ele>
        <time>2022-04-06T14:13:28Z</time>
      </trkpt>
      <trkpt lat="49.02098" lon="-0.46753">
        <ele>31</ele>
        <time>2022-04-06T14:13:32Z</time>
      </trkpt>
      <trkpt lat="49.02125" lon="-0.46742">
        <ele>33</ele>
        <time>2022-04-06T14:13:38Z</time>
      </trkpt>
      <trkpt lat="49.02182" lon="-0.4671">
        <ele>32</ele>
        <time>2022-04-06T14:13:53Z</time>
      </trkpt>
      <trkpt lat="49.02269" lon="-0.46685">
        <ele>26</ele>
        <time>2022-04-06T14:14:13Z</time>
      </trkpt>
      <trkpt lat="49.02285" lon="-0.46688">
        <ele>26</ele>
        <time>2022-04-06T14:14:17Z</time>
      </trkpt>
      <trkpt lat="49.02293" lon="-0.46694">
        <ele>27</ele>
        <time>2022-04-06T14:14:19Z</time>
      </trkpt>
      <trkpt lat="49.02292" lon="-0.46704">
        <ele>29</ele>
        <time>2022-04-06T14:14:21Z</time>
      </trkpt>
      <trkpt lat="49.02315" lon="-0.46705">
        <ele>28</ele>
        <time>2022-04-06T14:14:26Z</time>
      </trkpt>
      <trkpt lat="49.02348" lon="-0.46684">
        <ele>25</ele>
        <time>2022-04-06T14:14:34Z</time>
      </trkpt>
      <trkpt lat="49.02367" lon="-0.46679">
        <ele>25</ele>
        <time>2022-04-06T14:14:39Z</time>
      </trkpt>
      <trkpt lat="49.02421" lon="-0.46676">
        <ele>26</ele>
        <time>2022-04-06T14:14:52Z</time>
      </trkpt>
      <trkpt lat="49.02446" lon="-0.46682">
        <ele>27</ele>
        <time>2022-04-06T14:14:57Z</time>
      </trkpt>
      <trkpt lat="49.02456" lon="-0.46691">
        <ele>28</ele>
        <time>2022-04-06T14:15:00Z</time>
      </trkpt>
      <trkpt lat="49.02455" lon="-0.46708">
        <ele>30</ele>
        <time>2022-04-06T14:15:03Z</time>
      </trkpt>
      <trkpt lat="49.02443" lon="-0.46773">
        <ele>38</ele>
        <time>2022-04-06T14:15:13Z</time>
      </trkpt>
      <trkpt lat="49.02454" lon="-0.46786">
        <ele>38</ele>
        <time>2022-04-06T14:15:16Z</time>
      </trkpt>
      <trkpt lat="49.02476" lon="-0.46799">
        <ele>38</ele>
        <time>2022-04-06T14:15:22Z</time>
      </trkpt>
      <trkpt lat="49.02523" lon="-0.46854">
        <ele>42</ele>
        <time>2022-04-06T14:15:36Z</time>
      </trkpt>
      <trkpt lat="49.02536" lon="-0.46878">
        <ele>44</ele>
        <time>2022-04-06T14:15:41Z</time>
      </trkpt>
      <trkpt lat="49.02549" lon="-0.46881">
        <ele>45</ele>
        <time>2022-04-06T14:15:44Z</time>
      </trkpt>
      <trkpt lat="49.02569" lon="-0.46872">
        <ele>44</ele>
        <time>2022-04-06T14:15:48Z</time>
      </trkpt>
      <trkpt lat="49.02584" lon="-0.46855">
        <ele>42</ele>
        <time>2022-04-06T14:15:53Z</time>
      </trkpt>
      <trkpt lat="49.02629" lon="-0.46775">
        <ele>34</ele>
        <time>2022-04-06T14:16:09Z</time>
      </trkpt>
      <trkpt lat="49.02712" lon="-0.46775">
        <ele>33</ele>
        <time>2022-04-06T14:16:28Z</time>
      </trkpt>
      <trkpt lat="49.0277" lon="-0.46781">
        <ele>34</ele>
        <time>2022-04-06T14:16:42Z</time>
      </trkpt>
      <trkpt lat="49.02967" lon="-0.46789">
        <ele>38</ele>
        <time>2022-04-06T14:17:28Z</time>
      </trkpt>
      <trkpt lat="49.03007" lon="-0.46784">
        <ele>38</ele>
        <time>2022-04-06T14:17:37Z</time>
      </trkpt>
      <trkpt lat="49.03068" lon="-0.46758">
        <ele>33</ele>
        <time>2022-04-06T14:17:52Z</time>
      </trkpt>
      <trkpt lat="49.03132" lon="-0.46742">
        <ele>28</ele>
        <time>2022-04-06T14:18:07Z</time>
      </trkpt>
      <trkpt lat="49.03237" lon="-0.4674">
        <ele>27</ele>
        <time>2022-04-06T14:18:32Z</time>
      </trkpt>
      <trkpt lat="49.03282" lon="-0.46747">
        <ele>27</ele>
        <time>2022-04-06T14:18:42Z</time>
      </trkpt>
      <trkpt lat="49.03305" lon="-0.46733">
        <ele>25</ele>
        <time>2022-04-06T14:18:48Z</time>
      </trkpt>
    </trkseg>
  </trk>
</gpx>